PWSweather.com
Personal Weather Stations
Station Observations
DL5ARK
SonnebergDE

SonnebergDE

Lat: 50.34904861, Lon: 11.18112087

Elevation: 1214

Station Type: Selfmade

http://www.sumbarg.de

High Low Average
Temperature 48.0°F8.9°C 23.8°F-4.6°C 39.4°F4.1°C
Dew Point 51.9°F11.1°C 29.5°F-1.4°C 42.6°F5.9°C
Winds 11.9 mph 19.2 kmh Calm Calm 2.0 mph WSW3.2 kmh WSW
Wind Gusts 11.9 mph19.2 kmh -- 2.0 mph3.2 kmh
Humidity 91% 67% 83%
Pressure 30.33 in1027.1 mb 29.58 in1001.7 mb -
Precipitation 0.12 in3.0 mm - -
Hour Temp Dew Point Humidity Winds Wind Gusts Pressure Precip Precip Rate Daily Precip Total
12:00 AM 47.5°F8.6°C 51.2°F10.7°C 91% 5.1 mph NW8.2 kmh NW 5.1 mph8.2 kmh 29.58 in1001.7 mb 0.00 in0.0 mm 0.00 in0.0 mm 0.00 in0.0 mm
12:03 AM 47.6°F8.7°C 51.4°F10.8°C 91% 2.1 mph NNW3.4 kmh NNW 2.1 mph3.4 kmh 29.58 in1001.7 mb 0.00 in0.0 mm 0.00 in0.0 mm 0.00 in0.0 mm
12:06 AM 47.6°F8.7°C 51.4°F10.8°C 91% 3.4 mph WNW5.5 kmh WNW 3.4 mph5.5 kmh 29.58 in1001.7 mb 0.00 in0.0 mm 0.00 in0.0 mm 0.00 in0.0 mm
12:09 AM 47.6°F8.7°C 51.5°F10.8°C 91% 2.5 mph NW4.0 kmh NW 2.5 mph4.0 kmh 29.59 in1002.0 mb 0.00 in0.0 mm 0.00 in0.0 mm 0.00 in0.0 mm
12:12 AM 47.6°F8.7°C 51.5°F10.8°C 91% 4.2 mph NW6.8 kmh NW 4.2 mph6.8 kmh 29.59 in1002.0 mb 0.00 in0.0 mm 0.00 in0.0 mm 0.00 in0.0 mm
12:15 AM 47.6°F8.7°C 51.4°F10.8°C 91% 4.6 mph WNW7.4 kmh WNW 4.6 mph7.4 kmh 29.59 in1002.0 mb 0.00 in0.0 mm 0.00 in0.0 mm 0.00 in0.0 mm
12:18 AM 47.5°F8.6°C 51.5°F10.8°C 91% 6.7 mph WSW10.8 kmh WSW 6.7 mph10.8 kmh 29.59 in1002.0 mb 0.00 in0.0 mm 0.00 in0.0 mm 0.00 in0.0 mm
12:21 AM 47.6°F8.7°C 51.6°F10.9°C 91% 3.4 mph W5.5 kmh W 3.4 mph5.5 kmh 29.59 in1002.0 mb 0.00 in0.0 mm 0.00 in0.0 mm 0.00 in0.0 mm
12:24 AM 47.6°F8.7°C 51.3°F10.7°C 91% 2.1 mph WNW3.4 kmh WNW 2.1 mph3.4 kmh 29.59 in1002.0 mb 0.00 in0.0 mm 0.00 in0.0 mm 0.00 in0.0 mm
12:27 AM 47.6°F8.7°C 51.6°F10.9°C 91% 1.7 mph WSW2.7 kmh WSW 1.7 mph2.7 kmh 29.59 in1002.0 mb 0.00 in0.0 mm 0.00 in0.0 mm 0.00 in0.0 mm
12:30 AM 47.6°F8.7°C 51.5°F10.8°C 91% 3.9 mph WSW6.3 kmh WSW 3.9 mph6.3 kmh 29.59 in1002.0 mb 0.00 in0.0 mm 0.00 in0.0 mm 0.00 in0.0 mm
12:33 AM 47.8°F8.8°C 51.7°F10.9°C 91% 3.0 mph W4.8 kmh W 3.0 mph4.8 kmh 29.59 in1002.0 mb 0.00 in0.0 mm 0.00 in0.0 mm 0.00 in0.0 mm
12:36 AM 47.8°F8.8°C 51.4°F10.8°C 91% 3.4 mph W5.5 kmh W 3.4 mph5.5 kmh 29.59 in1002.0 mb 0.00 in0.0 mm 0.00 in0.0 mm 0.00 in0.0 mm
12:39 AM 47.8°F8.8°C 51.2°F10.7°C 90% 6.4 mph WSW10.3 kmh WSW 6.4 mph10.3 kmh 29.59 in1002.0 mb 0.00 in0.0 mm 0.00 in0.0 mm 0.00 in0.0 mm
12:42 AM 47.8°F8.8°C 51.3°F10.7°C 91% 2.1 mph NNW3.4 kmh NNW 2.1 mph3.4 kmh 29.59 in1002.0 mb 0.00 in0.0 mm 0.00 in0.0 mm 0.00 in0.0 mm
12:45 AM 47.9°F8.8°C 51.5°F10.8°C 91% 5.6 mph NW9.0 kmh NW 5.6 mph9.0 kmh 29.59 in1002.0 mb 0.00 in0.0 mm 0.00 in0.0 mm 0.00 in0.0 mm
12:48 AM 47.8°F8.8°C 51.7°F10.9°C 91% 4.3 mph WNW6.9 kmh WNW 4.3 mph6.9 kmh 29.59 in1002.0 mb 0.00 in0.0 mm 0.00 in0.0 mm 0.00 in0.0 mm
12:51 AM 47.9°F8.8°C 51.6°F10.9°C 91% 2.5 mph NNW4.0 kmh NNW 2.5 mph4.0 kmh 29.60 in1002.4 mb 0.00 in0.0 mm 0.00 in0.0 mm 0.00 in0.0 mm
12:54 AM 47.8°F8.8°C 51.6°F10.9°C 91% 5.9 mph WSW9.5 kmh WSW 5.9 mph9.5 kmh 29.59 in1002.0 mb 0.00 in0.0 mm 0.00 in0.0 mm 0.00 in0.0 mm
12:57 AM 47.8°F8.8°C 51.6°F10.9°C 91% 3.8 mph NNW6.1 kmh NNW 3.8 mph6.1 kmh 29.59 in1002.0 mb 0.00 in0.0 mm 0.00 in0.0 mm 0.00 in0.0 mm
01:00 AM 47.8°F8.8°C 51.5°F10.8°C 91% 4.7 mph WNW7.6 kmh WNW 4.7 mph7.6 kmh 29.60 in1002.4 mb 0.00 in0.0 mm 0.00 in0.0 mm 0.02 in0.5 mm
01:03 AM 47.8°F8.8°C 51.6°F10.9°C 91% 2.5 mph NNW4.0 kmh NNW 2.5 mph4.0 kmh 29.61 in1002.7 mb 0.00 in0.0 mm 0.00 in0.0 mm 0.02 in0.5 mm
01:06 AM 47.8°F8.8°C 51.5°F10.8°C 91% 4.7 mph WSW7.6 kmh WSW 4.7 mph7.6 kmh 29.61 in1002.7 mb 0.00 in0.0 mm 0.00 in0.0 mm 0.02 in0.5 mm
01:09 AM 47.8°F8.8°C 51.6°F10.9°C 91% 7.7 mph NW12.4 kmh NW 7.7 mph12.4 kmh 29.61 in1002.7 mb 0.00 in0.0 mm 0.00 in0.0 mm 0.02 in0.5 mm
01:12 AM 48.0°F8.9°C 51.7°F10.9°C 91% 3.9 mph W6.3 kmh W 3.9 mph6.3 kmh 29.61 in1002.7 mb 0.00 in0.0 mm 0.00 in0.0 mm 0.02 in0.5 mm
01:15 AM 47.9°F8.8°C 51.9°F11.1°C 91% 5.6 mph NW9.0 kmh NW 5.6 mph9.0 kmh 29.61 in1002.7 mb 0.00 in0.0 mm 0.00 in0.0 mm 0.02 in0.5 mm
01:18 AM 48.0°F8.9°C 51.6°F10.9°C 91% 4.7 mph NW7.6 kmh NW 4.7 mph7.6 kmh 29.61 in1002.7 mb 0.00 in0.0 mm 0.00 in0.0 mm 0.02 in0.5 mm
01:21 AM 48.0°F8.9°C 51.6°F10.9°C 91% 9.4 mph WNW15.1 kmh WNW 9.4 mph15.1 kmh 29.61 in1002.7 mb 0.00 in0.0 mm 0.00 in0.0 mm 0.02 in0.5 mm
01:24 AM 48.0°F8.9°C 51.6°F10.9°C 91% 0.8 mph WSW1.3 kmh WSW 0.8 mph1.3 kmh 29.61 in1002.7 mb 0.00 in0.0 mm 0.00 in0.0 mm 0.02 in0.5 mm
01:27 AM 48.0°F8.9°C 51.4°F10.8°C 90% 3.9 mph W6.3 kmh W 3.9 mph6.3 kmh 29.61 in1002.7 mb 0.00 in0.0 mm 0.00 in0.0 mm 0.02 in0.5 mm
01:30 AM 48.0°F8.9°C 51.7°F10.9°C 91% 2.5 mph WNW4.0 kmh WNW 2.5 mph4.0 kmh 29.61 in1002.7 mb 0.00 in0.0 mm 0.00 in0.0 mm 0.02 in0.5 mm
01:33 AM 48.0°F8.9°C 51.3°F10.7°C 91% 4.3 mph NW6.9 kmh NW 4.3 mph6.9 kmh 29.61 in1002.7 mb 0.00 in0.0 mm 0.00 in0.0 mm 0.02 in0.5 mm
01:36 AM 48.0°F8.9°C 51.5°F10.8°C 91% 2.5 mph NW4.0 kmh NW 2.5 mph4.0 kmh 29.61 in1002.7 mb 0.00 in0.0 mm 0.00 in0.0 mm 0.02 in0.5 mm
01:39 AM 47.9°F8.8°C 51.5°F10.8°C 91% 3.4 mph NNW5.5 kmh NNW 3.4 mph5.5 kmh 29.60 in1002.4 mb 0.00 in0.0 mm 0.00 in0.0 mm 0.02 in0.5 mm
01:42 AM 47.9°F8.8°C 51.6°F10.9°C 91% 11.6 mph WSW18.7 kmh WSW 11.6 mph18.7 kmh 29.61 in1002.7 mb 0.00 in0.0 mm 0.00 in0.0 mm 0.02 in0.5 mm
01:45 AM 47.9°F8.8°C 51.1°F10.6°C 90% 4.7 mph WSW7.6 kmh WSW 4.7 mph7.6 kmh 29.61 in1002.7 mb 0.00 in0.0 mm 0.00 in0.0 mm 0.02 in0.5 mm
01:48 AM 47.9°F8.8°C 51.5°F10.8°C 91% 9.7 mph W15.6 kmh W 9.7 mph15.6 kmh 29.61 in1002.7 mb 0.00 in0.0 mm 0.00 in0.0 mm 0.02 in0.5 mm
01:51 AM 47.9°F8.8°C 51.7°F10.9°C 91% 3.9 mph W6.3 kmh W 3.9 mph6.3 kmh 29.61 in1002.7 mb 0.00 in0.0 mm 0.00 in0.0 mm 0.02 in0.5 mm
01:54 AM 47.9°F8.8°C 51.4°F10.8°C 91% 1.7 mph NW2.7 kmh NW 1.7 mph2.7 kmh 29.61 in1002.7 mb 0.00 in0.0 mm 0.00 in0.0 mm 0.02 in0.5 mm
01:57 AM 47.9°F8.8°C 51.4°F10.8°C 90% 3.4 mph NNW5.5 kmh NNW 3.4 mph5.5 kmh 29.62 in1003.0 mb 0.00 in0.0 mm 0.00 in0.0 mm 0.02 in0.5 mm
02:00 AM 47.9°F8.8°C 51.5°F10.8°C 90% 5.6 mph WSW9.0 kmh WSW 5.6 mph9.0 kmh 29.62 in1003.0 mb 0.00 in0.0 mm 0.00 in0.0 mm 0.02 in0.5 mm
02:03 AM 47.9°F8.8°C 51.2°F10.7°C 90% 4.7 mph NW7.6 kmh NW 4.7 mph7.6 kmh 29.62 in1003.0 mb 0.00 in0.0 mm 0.00 in0.0 mm 0.02 in0.5 mm
02:06 AM 47.9°F8.8°C 51.4°F10.8°C 90% 0.9 mph WSW1.4 kmh WSW 0.9 mph1.4 kmh 29.62 in1003.0 mb 0.00 in0.0 mm 0.00 in0.0 mm 0.02 in0.5 mm
02:09 AM 47.9°F8.8°C 51.1°F10.6°C 90% 3.0 mph NNW4.8 kmh NNW 3.0 mph4.8 kmh 29.62 in1003.0 mb 0.00 in0.0 mm 0.00 in0.0 mm 0.02 in0.5 mm
02:12 AM 47.8°F8.8°C 51.3°F10.7°C 90% 4.7 mph NNW7.6 kmh NNW 4.7 mph7.6 kmh 29.62 in1003.0 mb 0.00 in0.0 mm 0.00 in0.0 mm 0.02 in0.5 mm
02:15 AM 47.9°F8.8°C 51.3°F10.7°C 90% 7.3 mph NNW11.7 kmh NNW 7.3 mph11.7 kmh 29.62 in1003.0 mb 0.00 in0.0 mm 0.00 in0.0 mm 0.02 in0.5 mm
02:18 AM 47.8°F8.8°C 51.2°F10.7°C 90% 3.4 mph NW5.5 kmh NW 3.4 mph5.5 kmh 29.62 in1003.0 mb 0.00 in0.0 mm 0.00 in0.0 mm 0.02 in0.5 mm
02:21 AM 47.8°F8.8°C 51.2°F10.7°C 90% 2.6 mph WNW4.2 kmh WNW 2.6 mph4.2 kmh 29.62 in1003.0 mb 0.00 in0.0 mm 0.00 in0.0 mm 0.02 in0.5 mm
02:24 AM 47.9°F8.8°C 51.1°F10.6°C 90% 2.9 mph NW4.7 kmh NW 2.9 mph4.7 kmh 29.62 in1003.0 mb 0.00 in0.0 mm 0.00 in0.0 mm 0.02 in0.5 mm
02:27 AM 47.9°F8.8°C 51.3°F10.7°C 90% 0.8 mph NW1.3 kmh NW 0.8 mph1.3 kmh 29.62 in1003.0 mb 0.00 in0.0 mm 0.00 in0.0 mm 0.02 in0.5 mm
02:30 AM 47.9°F8.8°C 51.1°F10.6°C 90% 3.6 mph W5.8 kmh W 3.7 mph6.0 kmh 29.62 in1003.0 mb 0.00 in0.0 mm 0.00 in0.0 mm 0.02 in0.5 mm
02:33 AM 47.9°F8.8°C 51.4°F10.8°C 90% 4.3 mph 6.9 kmh 4.3 mph6.9 kmh 29.63 in1003.4 mb 0.00 in0.0 mm 0.00 in0.0 mm 0.02 in0.5 mm
02:36 AM 47.9°F8.8°C 51.3°F10.7°C 90% 5.1 mph NW8.2 kmh NW 5.1 mph8.2 kmh 29.63 in1003.4 mb 0.00 in0.0 mm 0.00 in0.0 mm 0.02 in0.5 mm
02:39 AM 47.9°F8.8°C 51.2°F10.7°C 90% 2.9 mph NW4.7 kmh NW 2.9 mph4.7 kmh 29.63 in1003.4 mb 0.00 in0.0 mm 0.00 in0.0 mm 0.02 in0.5 mm
02:42 AM 47.9°F8.8°C 51.3°F10.7°C 90% 4.3 mph W6.9 kmh W 4.3 mph6.9 kmh 29.64 in1003.7 mb 0.00 in0.0 mm 0.00 in0.0 mm 0.02 in0.5 mm
02:45 AM 47.9°F8.8°C 51.1°F10.6°C 90% 6.3 mph WSW10.1 kmh WSW 6.3 mph10.1 kmh 29.63 in1003.4 mb 0.00 in0.0 mm 0.00 in0.0 mm 0.02 in0.5 mm
02:48 AM 47.8°F8.8°C 51.3°F10.7°C 90% 2.6 mph W4.2 kmh W 2.6 mph4.2 kmh 29.64 in1003.7 mb 0.00 in0.0 mm 0.00 in0.0 mm 0.02 in0.5 mm
02:51 AM 47.6°F8.7°C 51.3°F10.7°C 90% 1.3 mph NNW2.1 kmh NNW 1.3 mph2.1 kmh 29.63 in1003.4 mb 0.00 in0.0 mm 0.00 in0.0 mm 0.02 in0.5 mm
02:54 AM 47.6°F8.7°C 51.2°F10.7°C 90% 3.4 mph NNW5.5 kmh NNW 3.4 mph5.5 kmh 29.64 in1003.7 mb 0.00 in0.0 mm 0.00 in0.0 mm 0.02 in0.5 mm
02:57 AM 47.8°F8.8°C 51.3°F10.7°C 90% 1.7 mph W2.7 kmh W 1.7 mph2.7 kmh 29.64 in1003.7 mb 0.00 in0.0 mm 0.00 in0.0 mm 0.02 in0.5 mm
03:00 AM 47.6°F8.7°C 51.1°F10.6°C 89% 1.3 mph NW2.1 kmh NW 1.3 mph2.1 kmh 29.63 in1003.4 mb 0.00 in0.0 mm 0.00 in0.0 mm 0.02 in0.5 mm
03:03 AM 47.8°F8.8°C 51.3°F10.7°C 90% 3.0 mph WNW4.8 kmh WNW 3.0 mph4.8 kmh 29.63 in1003.4 mb 0.00 in0.0 mm 0.00 in0.0 mm 0.02 in0.5 mm
03:06 AM 47.6°F8.7°C 51.2°F10.7°C 90% 3.4 mph WNW5.5 kmh WNW 3.4 mph5.5 kmh 29.64 in1003.7 mb 0.00 in0.0 mm 0.00 in0.0 mm 0.02 in0.5 mm
03:09 AM 47.8°F8.8°C 51.3°F10.7°C 90% 2.1 mph WSW3.4 kmh WSW 2.1 mph3.4 kmh 29.64 in1003.7 mb 0.00 in0.0 mm 0.00 in0.0 mm 0.02 in0.5 mm
03:12 AM 47.6°F8.7°C 51.3°F10.7°C 90% 5.6 mph W9.0 kmh W 5.6 mph9.0 kmh 29.64 in1003.7 mb 0.00 in0.0 mm 0.00 in0.0 mm 0.02 in0.5 mm
03:15 AM 47.8°F8.8°C 51.1°F10.6°C 89% 2.1 mph W3.4 kmh W 2.1 mph3.4 kmh 29.64 in1003.7 mb 0.00 in0.0 mm 0.00 in0.0 mm 0.02 in0.5 mm
03:18 AM 47.6°F8.7°C 51.2°F10.7°C 90% 0.8 mph NNE1.3 kmh NNE 0.8 mph1.3 kmh 29.64 in1003.7 mb 0.00 in0.0 mm 0.00 in0.0 mm 0.02 in0.5 mm
03:21 AM 47.8°F8.8°C 50.9°F10.5°C 90% 8.6 mph NNW13.8 kmh NNW 8.6 mph13.8 kmh 29.64 in1003.7 mb 0.00 in0.0 mm 0.00 in0.0 mm 0.02 in0.5 mm
03:24 AM 47.8°F8.8°C 51.0°F10.6°C 90% 3.4 mph WNW5.5 kmh WNW 3.4 mph5.5 kmh 29.64 in1003.7 mb 0.00 in0.0 mm 0.00 in0.0 mm 0.02 in0.5 mm
03:27 AM 47.6°F8.7°C 51.0°F10.6°C 90% 9.4 mph W15.1 kmh W 9.4 mph15.1 kmh 29.64 in1003.7 mb 0.00 in0.0 mm 0.00 in0.0 mm 0.02 in0.5 mm
03:30 AM 47.8°F8.8°C 51.3°F10.7°C 90% 3.0 mph NNW4.8 kmh NNW 3.0 mph4.8 kmh 29.64 in1003.7 mb 0.00 in0.0 mm 0.00 in0.0 mm 0.02 in0.5 mm
03:33 AM 47.6°F8.7°C 51.3°F10.7°C 90% 2.6 mph W4.2 kmh W 2.6 mph4.2 kmh 29.64 in1003.7 mb 0.00 in0.0 mm 0.00 in0.0 mm 0.02 in0.5 mm
03:36 AM 47.5°F8.6°C 51.0°F10.6°C 90% 4.7 mph W7.6 kmh W 4.7 mph7.6 kmh 29.64 in1003.7 mb 0.00 in0.0 mm 0.00 in0.0 mm 0.04 in1.0 mm
03:39 AM 47.6°F8.7°C 51.2°F10.7°C 90% 7.3 mph NNW11.7 kmh NNW 7.3 mph11.7 kmh 29.64 in1003.7 mb 0.00 in0.0 mm 0.00 in0.0 mm 0.04 in1.0 mm
03:42 AM 47.6°F8.7°C 51.2°F10.7°C 91% 3.8 mph NW6.1 kmh NW 3.8 mph6.1 kmh 29.64 in1003.7 mb 0.00 in0.0 mm 0.00 in0.0 mm 0.04 in1.0 mm
03:45 AM 47.5°F8.6°C 51.3°F10.7°C 91% 8.6 mph NW13.8 kmh NW 8.6 mph13.8 kmh 29.64 in1003.7 mb 0.00 in0.0 mm 0.00 in0.0 mm 0.04 in1.0 mm
03:48 AM 47.5°F8.6°C 51.2°F10.7°C 90% 3.0 mph NNW4.8 kmh NNW 3.0 mph4.8 kmh 29.64 in1003.7 mb 0.00 in0.0 mm 0.00 in0.0 mm 0.04 in1.0 mm
03:51 AM 47.5°F8.6°C 51.2°F10.7°C 90% 4.7 mph NNW7.6 kmh NNW 4.7 mph7.6 kmh 29.64 in1003.7 mb 0.00 in0.0 mm 0.00 in0.0 mm 0.04 in1.0 mm
03:54 AM 47.5°F8.6°C 51.0°F10.6°C 90% 7.4 mph NNW11.9 kmh NNW 7.4 mph11.9 kmh 29.64 in1003.7 mb 0.00 in0.0 mm 0.00 in0.0 mm 0.04 in1.0 mm
03:57 AM 47.5°F8.6°C 50.9°F10.5°C 90% 2.1 mph WNW3.4 kmh WNW 2.1 mph3.4 kmh 29.64 in1003.7 mb 0.00 in0.0 mm 0.00 in0.0 mm 0.04 in1.0 mm
04:00 AM 47.4°F8.6°C 50.8°F10.4°C 89% 3.8 mph NNW6.1 kmh NNW 3.8 mph6.1 kmh 29.64 in1003.7 mb 0.00 in0.0 mm 0.00 in0.0 mm 0.04 in1.0 mm
04:03 AM 47.4°F8.6°C 51.0°F10.6°C 90% 8.0 mph W12.9 kmh W 8.0 mph12.9 kmh 29.65 in1004.1 mb 0.00 in0.0 mm 0.00 in0.0 mm 0.04 in1.0 mm
04:06 AM 47.5°F8.6°C 51.1°F10.6°C 90% 1.7 mph NNW2.7 kmh NNW 1.7 mph2.7 kmh 29.64 in1003.7 mb 0.00 in0.0 mm 0.00 in0.0 mm 0.04 in1.0 mm
04:09 AM 47.4°F8.6°C 51.2°F10.7°C 90% 1.7 mph WSW2.7 kmh WSW 1.7 mph2.7 kmh 29.64 in1003.7 mb 0.00 in0.0 mm 0.00 in0.0 mm 0.04 in1.0 mm
04:12 AM 47.4°F8.6°C 50.9°F10.5°C 89% 1.7 mph NNW2.7 kmh NNW 1.7 mph2.7 kmh 29.64 in1003.7 mb 0.00 in0.0 mm 0.00 in0.0 mm 0.04 in1.0 mm
04:15 AM 47.4°F8.6°C 51.2°F10.7°C 90% 3.4 mph W5.5 kmh W 3.4 mph5.5 kmh 29.64 in1003.7 mb 0.00 in0.0 mm 0.00 in0.0 mm 0.04 in1.0 mm
04:18 AM 47.3°F8.5°C 51.2°F10.7°C 90% 2.6 mph NNW4.2 kmh NNW 2.6 mph4.2 kmh 29.65 in1004.1 mb 0.00 in0.0 mm 0.00 in0.0 mm 0.04 in1.0 mm
04:21 AM 47.3°F8.5°C 51.1°F10.6°C 90% 4.6 mph W7.4 kmh W 4.6 mph7.4 kmh 29.64 in1003.7 mb 0.00 in0.0 mm 0.00 in0.0 mm 0.04 in1.0 mm
04:24 AM 47.3°F8.5°C 51.1°F10.6°C 90% 0.8 mph WNW1.3 kmh WNW 0.8 mph1.3 kmh 29.65 in1004.1 mb 0.00 in0.0 mm 0.00 in0.0 mm 0.04 in1.0 mm
04:27 AM 47.3°F8.5°C 51.0°F10.6°C 90% 6.3 mph NW10.1 kmh NW 6.3 mph10.1 kmh 29.65 in1004.1 mb 0.00 in0.0 mm 0.00 in0.0 mm 0.04 in1.0 mm
04:30 AM 47.3°F8.5°C 51.1°F10.6°C 90% 3.9 mph NW6.3 kmh NW 3.9 mph6.3 kmh 29.65 in1004.1 mb 0.00 in0.0 mm 0.00 in0.0 mm 0.04 in1.0 mm
04:33 AM 47.3°F8.5°C 51.0°F10.6°C 90% 4.2 mph NW6.8 kmh NW 4.2 mph6.8 kmh 29.65 in1004.1 mb 0.00 in0.0 mm 0.00 in0.0 mm 0.04 in1.0 mm
04:36 AM 47.3°F8.5°C 51.0°F10.6°C 90% 7.3 mph W11.7 kmh W 7.3 mph11.7 kmh 29.66 in1004.4 mb 0.00 in0.0 mm 0.00 in0.0 mm 0.06 in1.5 mm
04:39 AM 47.2°F8.4°C 51.0°F10.6°C 90% 6.0 mph NNW9.7 kmh NNW 6.0 mph9.7 kmh 29.66 in1004.4 mb 0.00 in0.0 mm 0.00 in0.0 mm 0.06 in1.5 mm
04:42 AM 47.3°F8.5°C 50.8°F10.4°C 90% 4.1 mph WNW6.6 kmh WNW 4.1 mph6.6 kmh 29.66 in1004.4 mb 0.00 in0.0 mm 0.00 in0.0 mm 0.06 in1.5 mm
04:45 AM 47.2°F8.4°C 51.1°F10.6°C 90% 4.3 mph W6.9 kmh W 4.3 mph6.9 kmh 29.67 in1004.7 mb 0.00 in0.0 mm 0.00 in0.0 mm 0.06 in1.5 mm
04:48 AM 47.3°F8.5°C 51.1°F10.6°C 90% 3.0 mph WNW4.8 kmh WNW 3.0 mph4.8 kmh 29.67 in1004.7 mb 0.00 in0.0 mm 0.00 in0.0 mm 0.06 in1.5 mm
04:51 AM 47.3°F8.5°C 50.8°F10.4°C 90% 5.1 mph W8.2 kmh W 5.1 mph8.2 kmh 29.67 in1004.7 mb 0.00 in0.0 mm 0.00 in0.0 mm 0.06 in1.5 mm
04:54 AM 47.2°F8.4°C 51.1°F10.6°C 90% 4.7 mph W7.6 kmh W 4.7 mph7.6 kmh 29.67 in1004.7 mb 0.00 in0.0 mm 0.00 in0.0 mm 0.06 in1.5 mm
04:57 AM 47.2°F8.4°C 51.1°F10.6°C 91% 4.6 mph NW7.4 kmh NW 4.6 mph7.4 kmh 29.67 in1004.7 mb 0.00 in0.0 mm 0.00 in0.0 mm 0.06 in1.5 mm
05:00 AM 47.2°F8.4°C 51.0°F10.6°C 90% 1.3 mph W2.1 kmh W 1.3 mph2.1 kmh 29.68 in1005.1 mb 0.00 in0.0 mm 0.00 in0.0 mm 0.06 in1.5 mm
05:03 AM 47.1°F8.4°C 50.9°F10.5°C 90% 8.6 mph WNW13.8 kmh WNW 8.6 mph13.8 kmh 29.68 in1005.1 mb 0.00 in0.0 mm 0.00 in0.0 mm 0.06 in1.5 mm
05:06 AM 47.2°F8.4°C 50.9°F10.5°C 90% 1.7 mph NNW2.7 kmh NNW 1.7 mph2.7 kmh 29.68 in1005.1 mb 0.00 in0.0 mm 0.00 in0.0 mm 0.06 in1.5 mm
05:09 AM 47.2°F8.4°C 51.0°F10.6°C 90% 3.0 mph NW4.8 kmh NW 3.0 mph4.8 kmh 29.68 in1005.1 mb 0.00 in0.0 mm 0.00 in0.0 mm 0.06 in1.5 mm
05:12 AM 47.1°F8.4°C 50.9°F10.5°C 90% 2.2 mph NW3.5 kmh NW 2.2 mph3.5 kmh 29.68 in1005.1 mb 0.00 in0.0 mm 0.00 in0.0 mm 0.06 in1.5 mm
05:15 AM 47.1°F8.4°C 50.9°F10.5°C 90% 3.0 mph NNW4.8 kmh NNW 3.0 mph4.8 kmh 29.68 in1005.1 mb 0.00 in0.0 mm 0.00 in0.0 mm 0.06 in1.5 mm
05:18 AM 47.1°F8.4°C 50.9°F10.5°C 90% 1.7 mph NW2.7 kmh NW 1.7 mph2.7 kmh 29.68 in1005.1 mb 0.00 in0.0 mm 0.00 in0.0 mm 0.06 in1.5 mm
05:21 AM 47.0°F8.3°C 50.9°F10.5°C 90% Calm Calm -- 29.68 in1005.1 mb 0.00 in0.0 mm 0.00 in0.0 mm 0.08 in2.0 mm
05:24 AM 47.0°F8.3°C 50.9°F10.5°C 90% 2.1 mph NNW3.4 kmh NNW 2.1 mph3.4 kmh 29.68 in1005.1 mb 0.00 in0.0 mm 0.00 in0.0 mm 0.08 in2.0 mm
05:27 AM 47.0°F8.3°C 50.8°F10.4°C 90% 8.6 mph NW13.8 kmh NW 8.6 mph13.8 kmh 29.68 in1005.1 mb 0.00 in0.0 mm 0.00 in0.0 mm 0.08 in2.0 mm
05:30 AM 47.2°F8.4°C 50.7°F10.4°C 90% 5.1 mph NW8.2 kmh NW 5.1 mph8.2 kmh 29.68 in1005.1 mb 0.00 in0.0 mm 0.00 in0.0 mm 0.08 in2.0 mm
05:33 AM 47.1°F8.4°C 50.7°F10.4°C 90% 5.6 mph WNW9.0 kmh WNW 5.6 mph9.0 kmh 29.68 in1005.1 mb 0.00 in0.0 mm 0.00 in0.0 mm 0.08 in2.0 mm
05:36 AM 47.0°F8.3°C 50.5°F10.3°C 89% 2.6 mph NNW4.2 kmh NNW 2.6 mph4.2 kmh 29.69 in1005.4 mb 0.00 in0.0 mm 0.00 in0.0 mm 0.08 in2.0 mm
05:39 AM 47.0°F8.3°C 50.8°F10.4°C 90% 3.9 mph NNW6.3 kmh NNW 3.9 mph6.3 kmh 29.69 in1005.4 mb 0.00 in0.0 mm 0.00 in0.0 mm 0.08 in2.0 mm
05:42 AM 47.0°F8.3°C 50.7°F10.4°C 90% 3.0 mph NNW4.8 kmh NNW 3.0 mph4.8 kmh 29.70 in1005.8 mb 0.00 in0.0 mm 0.00 in0.0 mm 0.08 in2.0 mm
05:45 AM 46.9°F8.3°C 50.7°F10.4°C 90% 2.6 mph NW4.2 kmh NW 2.6 mph4.2 kmh 29.70 in1005.8 mb 0.00 in0.0 mm 0.00 in0.0 mm 0.10 in2.5 mm
05:48 AM 47.0°F8.3°C 50.8°F10.4°C 90% 6.0 mph NW9.7 kmh NW 6.0 mph9.7 kmh 29.70 in1005.8 mb 0.00 in0.0 mm 0.00 in0.0 mm 0.10 in2.5 mm
05:51 AM 47.0°F8.3°C 50.5°F10.3°C 90% 4.7 mph NNW7.6 kmh NNW 4.7 mph7.6 kmh 29.70 in1005.8 mb 0.00 in0.0 mm 0.00 in0.0 mm 0.10 in2.5 mm
05:54 AM 46.9°F8.3°C 50.6°F10.3°C 90% 4.6 mph NNW7.4 kmh NNW 4.6 mph7.4 kmh 29.71 in1006.1 mb 0.00 in0.0 mm 0.00 in0.0 mm 0.10 in2.5 mm
05:57 AM 46.9°F8.3°C 50.6°F10.3°C 90% 8.2 mph NNW13.2 kmh NNW 8.2 mph13.2 kmh 29.71 in1006.1 mb 0.00 in0.0 mm 0.00 in0.0 mm 0.10 in2.5 mm
06:00 AM 47.0°F8.3°C 50.4°F10.2°C 89% 2.6 mph NNW4.2 kmh NNW 2.6 mph4.2 kmh 29.71 in1006.1 mb 0.00 in0.0 mm 0.00 in0.0 mm 0.10 in2.5 mm
06:03 AM 46.7°F8.2°C 50.5°F10.3°C 89% 3.4 mph NNW5.5 kmh NNW 3.4 mph5.5 kmh 29.71 in1006.1 mb 0.00 in0.0 mm 0.00 in0.0 mm 0.10 in2.5 mm
06:06 AM 46.6°F8.1°C 50.3°F10.2°C 89% 1.3 mph NNW2.1 kmh NNW 1.3 mph2.1 kmh 29.71 in1006.1 mb 0.00 in0.0 mm 0.00 in0.0 mm 0.10 in2.5 mm
06:09 AM 46.7°F8.2°C 49.9°F9.9°C 88% 2.5 mph 4.0 kmh 2.5 mph4.0 kmh 29.72 in1006.4 mb 0.00 in0.0 mm 0.00 in0.0 mm 0.10 in2.5 mm
06:12 AM 46.7°F8.2°C 49.9°F9.9°C 88% 1.7 mph NNW2.7 kmh NNW 1.7 mph2.7 kmh 29.72 in1006.4 mb 0.00 in0.0 mm 0.00 in0.0 mm 0.10 in2.5 mm
06:15 AM 46.5°F8.1°C 49.8°F9.9°C 88% 4.7 mph NW7.6 kmh NW 4.7 mph7.6 kmh 29.73 in1006.8 mb 0.00 in0.0 mm 0.00 in0.0 mm 0.10 in2.5 mm
06:18 AM 46.5°F8.1°C 49.8°F9.9°C 88% 1.3 mph WNW2.1 kmh WNW 1.3 mph2.1 kmh 29.72 in1006.4 mb 0.00 in0.0 mm 0.00 in0.0 mm 0.10 in2.5 mm
06:21 AM 46.5°F8.1°C 49.3°F9.6°C 87% 3.4 mph NNW5.5 kmh NNW 3.4 mph5.5 kmh 29.73 in1006.8 mb 0.00 in0.0 mm 0.00 in0.0 mm 0.10 in2.5 mm
06:24 AM 46.5°F8.1°C 49.7°F9.8°C 88% 2.6 mph NNW4.2 kmh NNW 2.6 mph4.2 kmh 29.73 in1006.8 mb 0.00 in0.0 mm 0.00 in0.0 mm 0.10 in2.5 mm
06:27 AM 46.4°F8.0°C 49.7°F9.8°C 88% 3.0 mph NNW4.8 kmh NNW 3.0 mph4.8 kmh 29.73 in1006.8 mb 0.00 in0.0 mm 0.00 in0.0 mm 0.10 in2.5 mm
06:30 AM 46.3°F7.9°C 49.6°F9.8°C 88% Calm Calm -- 29.74 in1007.1 mb 0.00 in0.0 mm 0.00 in0.0 mm 0.10 in2.5 mm
06:33 AM 46.3°F7.9°C 49.7°F9.8°C 87% 2.1 mph NW3.4 kmh NW 2.1 mph3.4 kmh 29.74 in1007.1 mb 0.00 in0.0 mm 0.00 in0.0 mm 0.10 in2.5 mm
06:36 AM 46.2°F7.9°C 49.5°F9.7°C 87% 0.4 mph NW0.6 kmh NW 0.4 mph0.6 kmh 29.74 in1007.1 mb 0.00 in0.0 mm 0.00 in0.0 mm 0.10 in2.5 mm
06:39 AM 46.1°F7.8°C 49.2°F9.6°C 87% 0.8 mph NNW1.3 kmh NNW 0.8 mph1.3 kmh 29.74 in1007.1 mb 0.00 in0.0 mm 0.00 in0.0 mm 0.12 in3.0 mm
06:42 AM 46.1°F7.8°C 49.3°F9.6°C 87% 0.4 mph WNW0.6 kmh WNW 0.4 mph0.6 kmh 29.74 in1007.1 mb 0.00 in0.0 mm 0.00 in0.0 mm 0.12 in3.0 mm
06:45 AM 46.1°F7.8°C 49.2°F9.6°C 87% Calm Calm -- 29.74 in1007.1 mb 0.00 in0.0 mm 0.00 in0.0 mm 0.12 in3.0 mm
06:48 AM 45.7°F7.6°C 49.3°F9.6°C 87% 2.6 mph WNW4.2 kmh WNW 2.6 mph4.2 kmh 29.76 in1007.8 mb 0.00 in0.0 mm 0.00 in0.0 mm 0.12 in3.0 mm
06:51 AM 45.8°F7.7°C 49.1°F9.5°C 87% 2.1 mph NNW3.4 kmh NNW 2.1 mph3.4 kmh 29.75 in1007.5 mb 0.00 in0.0 mm 0.00 in0.0 mm 0.12 in3.0 mm
06:54 AM 45.7°F7.6°C 48.9°F9.4°C 86% 3.0 mph NNW4.8 kmh NNW 3.0 mph4.8 kmh 29.76 in1007.8 mb 0.00 in0.0 mm 0.00 in0.0 mm 0.12 in3.0 mm
06:57 AM 45.6°F7.6°C 49.1°F9.5°C 87% 4.2 mph NNW6.8 kmh NNW 4.2 mph6.8 kmh 29.76 in1007.8 mb 0.00 in0.0 mm 0.00 in0.0 mm 0.12 in3.0 mm
07:00 AM 45.4°F7.4°C 49.1°F9.5°C 87% 2.1 mph NW3.4 kmh NW 2.1 mph3.4 kmh 29.77 in1008.1 mb 0.00 in0.0 mm 0.00 in0.0 mm 0.12 in3.0 mm
07:03 AM 45.2°F7.3°C 49.1°F9.5°C 87% 5.6 mph WNW9.0 kmh WNW 5.6 mph9.0 kmh 29.77 in1008.1 mb 0.00 in0.0 mm 0.00 in0.0 mm 0.12 in3.0 mm
07:06 AM 44.9°F7.2°C 48.6°F9.2°C 86% 4.3 mph NW6.9 kmh NW 4.3 mph6.9 kmh 29.77 in1008.1 mb 0.00 in0.0 mm 0.00 in0.0 mm 0.12 in3.0 mm
07:09 AM 44.8°F7.1°C 48.6°F9.2°C 86% 1.7 mph NW2.7 kmh NW 1.7 mph2.7 kmh 29.77 in1008.1 mb 0.00 in0.0 mm 0.00 in0.0 mm 0.12 in3.0 mm
07:12 AM 44.9°F7.2°C 48.3°F9.1°C 86% 3.9 mph NNW6.3 kmh NNW 3.9 mph6.3 kmh 29.77 in1008.1 mb 0.00 in0.0 mm 0.00 in0.0 mm 0.12 in3.0 mm
07:15 AM 44.9°F7.2°C 48.4°F9.1°C 86% 3.0 mph WNW4.8 kmh WNW 3.0 mph4.8 kmh 29.77 in1008.1 mb 0.00 in0.0 mm 0.00 in0.0 mm 0.12 in3.0 mm
07:18 AM 44.8°F7.1°C 48.1°F8.9°C 85% Calm Calm -- 29.77 in1008.1 mb 0.00 in0.0 mm 0.00 in0.0 mm 0.12 in3.0 mm
07:21 AM 44.5°F6.9°C 48.1°F8.9°C 85% 2.1 mph NNW3.4 kmh NNW 2.1 mph3.4 kmh 29.77 in1008.1 mb 0.00 in0.0 mm 0.00 in0.0 mm 0.12 in3.0 mm
07:24 AM 44.3°F6.8°C 48.1°F8.9°C 85% Calm Calm -- 29.77 in1008.1 mb 0.00 in0.0 mm 0.00 in0.0 mm 0.12 in3.0 mm
07:27 AM 43.8°F6.6°C 48.2°F9.0°C 85% 1.7 mph W2.7 kmh W 1.7 mph2.7 kmh 29.79 in1008.8 mb 0.00 in0.0 mm 0.00 in0.0 mm 0.12 in3.0 mm
07:30 AM 43.5°F6.4°C 48.0°F8.9°C 85% 4.6 mph NNW7.4 kmh NNW 4.6 mph7.4 kmh 29.79 in1008.8 mb 0.00 in0.0 mm 0.00 in0.0 mm 0.12 in3.0 mm
07:33 AM 43.3°F6.3°C 47.5°F8.6°C 85% 3.0 mph WNW4.8 kmh WNW 3.0 mph4.8 kmh 29.79 in1008.8 mb 0.00 in0.0 mm 0.00 in0.0 mm 0.12 in3.0 mm
07:36 AM 43.3°F6.3°C 46.9°F8.3°C 83% 2.1 mph WNW3.4 kmh WNW 2.1 mph3.4 kmh 29.80 in1009.1 mb 0.00 in0.0 mm 0.00 in0.0 mm 0.12 in3.0 mm
07:39 AM 43.0°F6.1°C 46.9°F8.3°C 84% 0.4 mph NNW0.6 kmh NNW 0.4 mph0.6 kmh 29.80 in1009.1 mb 0.00 in0.0 mm 0.00 in0.0 mm 0.12 in3.0 mm
07:42 AM 42.9°F6.1°C 46.8°F8.2°C 84% 2.1 mph NNW3.4 kmh NNW 2.1 mph3.4 kmh 29.81 in1009.5 mb 0.00 in0.0 mm 0.00 in0.0 mm 0.12 in3.0 mm
07:45 AM 42.8°F6.0°C 46.7°F8.2°C 84% 4.3 mph NW6.9 kmh NW 4.3 mph6.9 kmh 29.81 in1009.5 mb 0.00 in0.0 mm 0.00 in0.0 mm 0.12 in3.0 mm
07:48 AM 42.8°F6.0°C 46.5°F8.1°C 84% 0.4 mph W0.6 kmh W 0.4 mph0.6 kmh 29.81 in1009.5 mb 0.00 in0.0 mm 0.00 in0.0 mm 0.12 in3.0 mm
07:51 AM 42.8°F6.0°C 46.6°F8.1°C 84% 2.1 mph NW3.4 kmh NW 2.1 mph3.4 kmh 29.81 in1009.5 mb 0.00 in0.0 mm 0.00 in0.0 mm 0.12 in3.0 mm
07:54 AM 42.8°F6.0°C 46.7°F8.2°C 84% 2.1 mph W3.4 kmh W 2.1 mph3.4 kmh 29.81 in1009.5 mb 0.00 in0.0 mm 0.00 in0.0 mm 0.12 in3.0 mm
07:57 AM 42.9°F6.1°C 46.4°F8.0°C 84% Calm Calm -- 29.82 in1009.8 mb 0.00 in0.0 mm 0.00 in0.0 mm 0.12 in3.0 mm
08:00 AM 42.8°F6.0°C 46.6°F8.1°C 84% Calm Calm -- 29.82 in1009.8 mb 0.00 in0.0 mm 0.00 in0.0 mm 0.12 in3.0 mm
08:03 AM 42.7°F5.9°C 46.6°F8.1°C 84% Calm Calm -- 29.83 in1010.2 mb 0.00 in0.0 mm 0.00 in0.0 mm 0.12 in3.0 mm
08:06 AM 42.7°F5.9°C 46.3°F7.9°C 84% Calm Calm -- 29.83 in1010.2 mb 0.00 in0.0 mm 0.00 in0.0 mm 0.12 in3.0 mm
08:09 AM 42.5°F5.8°C 46.7°F8.2°C 85% 0.9 mph W1.4 kmh W 0.9 mph1.4 kmh 29.84 in1010.5 mb 0.00 in0.0 mm 0.00 in0.0 mm 0.12 in3.0 mm
08:12 AM 42.4°F5.8°C 46.5°F8.1°C 85% 1.7 mph WSW2.7 kmh WSW 1.7 mph2.7 kmh 29.84 in1010.5 mb 0.00 in0.0 mm 0.00 in0.0 mm 0.12 in3.0 mm
08:15 AM 42.4°F5.8°C 46.6°F8.1°C 85% 0.9 mph WNW1.4 kmh WNW 0.9 mph1.4 kmh 29.84 in1010.5 mb 0.00 in0.0 mm 0.00 in0.0 mm 0.12 in3.0 mm
08:18 AM 42.4°F5.8°C 46.7°F8.2°C 85% 1.3 mph NNW2.1 kmh NNW 1.3 mph2.1 kmh 29.85 in1010.8 mb 0.00 in0.0 mm 0.00 in0.0 mm 0.12 in3.0 mm
08:21 AM 42.4°F5.8°C 46.4°F8.0°C 85% 1.3 mph W2.1 kmh W 1.3 mph2.1 kmh 29.84 in1010.5 mb 0.00 in0.0 mm 0.00 in0.0 mm 0.12 in3.0 mm
08:24 AM 42.2°F5.7°C 46.3°F7.9°C 85% 0.8 mph W1.3 kmh W 0.8 mph1.3 kmh 29.85 in1010.8 mb 0.00 in0.0 mm 0.00 in0.0 mm 0.12 in3.0 mm
08:27 AM 42.1°F5.6°C 46.3°F7.9°C 85% 0.9 mph NNW1.4 kmh NNW 0.9 mph1.4 kmh 29.85 in1010.8 mb 0.00 in0.0 mm 0.00 in0.0 mm 0.12 in3.0 mm
08:30 AM 42.0°F5.6°C 46.4°F8.0°C 85% 0.4 mph W0.6 kmh W 0.4 mph0.6 kmh 29.85 in1010.8 mb 0.00 in0.0 mm 0.00 in0.0 mm 0.12 in3.0 mm
08:33 AM 42.1°F5.6°C 46.2°F7.9°C 85% 2.1 mph W3.4 kmh W 2.1 mph3.4 kmh 29.85 in1010.8 mb 0.00 in0.0 mm 0.00 in0.0 mm 0.12 in3.0 mm
08:36 AM 42.1°F5.6°C 46.2°F7.9°C 85% 1.7 mph W2.7 kmh W 1.7 mph2.7 kmh 29.85 in1010.8 mb 0.00 in0.0 mm 0.00 in0.0 mm 0.12 in3.0 mm
08:39 AM 42.0°F5.6°C 46.2°F7.9°C 85% 1.3 mph NNW2.1 kmh NNW 1.3 mph2.1 kmh 29.87 in1011.5 mb 0.00 in0.0 mm 0.00 in0.0 mm 0.12 in3.0 mm
08:45 AM 42.0°F5.6°C 46.1°F7.8°C 85% 1.3 mph WNW2.1 kmh WNW 1.3 mph2.1 kmh 29.87 in1011.5 mb 0.00 in0.0 mm 0.00 in0.0 mm 0.12 in3.0 mm
08:48 AM 42.0°F5.6°C 46.0°F7.8°C 85% Calm Calm -- 29.87 in1011.5 mb 0.00 in0.0 mm 0.00 in0.0 mm 0.12 in3.0 mm
08:51 AM 41.8°F5.4°C 46.3°F7.9°C 85% Calm Calm -- 29.87 in1011.5 mb 0.00 in0.0 mm 0.00 in0.0 mm 0.12 in3.0 mm
08:54 AM 41.8°F5.4°C 46.1°F7.8°C 85% 1.7 mph NW2.7 kmh NW 1.7 mph2.7 kmh 29.87 in1011.5 mb 0.00 in0.0 mm 0.00 in0.0 mm 0.12 in3.0 mm
08:57 AM 42.0°F5.6°C 46.1°F7.8°C 85% Calm Calm -- 29.88 in1011.9 mb 0.00 in0.0 mm 0.00 in0.0 mm 0.12 in3.0 mm
09:00 AM 42.1°F5.6°C 45.9°F7.7°C 85% 2.1 mph NNW3.4 kmh NNW 2.1 mph3.4 kmh 29.88 in1011.9 mb 0.00 in0.0 mm 0.00 in0.0 mm 0.12 in3.0 mm
09:03 AM 42.2°F5.7°C 46.0°F7.8°C 85% Calm Calm -- 29.89 in1012.2 mb 0.00 in0.0 mm 0.00 in0.0 mm 0.12 in3.0 mm
09:06 AM 42.2°F5.7°C 46.0°F7.8°C 85% 1.7 mph 2.7 kmh 1.7 mph2.7 kmh 29.88 in1011.9 mb 0.00 in0.0 mm 0.00 in0.0 mm 0.12 in3.0 mm
09:09 AM 42.2°F5.7°C 45.6°F7.6°C 84% 0.9 mph NNW1.4 kmh NNW 0.9 mph1.4 kmh 29.89 in1012.2 mb 0.00 in0.0 mm 0.00 in0.0 mm 0.12 in3.0 mm
09:12 AM 42.2°F5.7°C 45.8°F7.7°C 85% 0.4 mph 0.6 kmh 0.4 mph0.6 kmh 29.89 in1012.2 mb 0.00 in0.0 mm 0.00 in0.0 mm 0.12 in3.0 mm
09:15 AM 42.2°F5.7°C 45.8°F7.7°C 85% Calm Calm -- 29.90 in1012.5 mb 0.00 in0.0 mm 0.00 in0.0 mm 0.12 in3.0 mm
09:18 AM 42.1°F5.6°C 45.8°F7.7°C 85% 0.4 mph NNW0.6 kmh NNW 0.4 mph0.6 kmh 29.90 in1012.5 mb 0.00 in0.0 mm 0.00 in0.0 mm 0.12 in3.0 mm
09:21 AM 41.8°F5.4°C 45.6°F7.6°C 85% 0.9 mph NNW1.4 kmh NNW 0.9 mph1.4 kmh 29.90 in1012.5 mb 0.00 in0.0 mm 0.00 in0.0 mm 0.12 in3.0 mm
09:24 AM 41.6°F5.3°C 45.5°F7.5°C 84% Calm Calm -- 29.90 in1012.5 mb 0.00 in0.0 mm 0.00 in0.0 mm 0.12 in3.0 mm
09:27 AM 41.5°F5.3°C 45.9°F7.7°C 84% 0.4 mph NNW0.6 kmh NNW 0.4 mph0.6 kmh 29.90 in1012.5 mb 0.00 in0.0 mm 0.00 in0.0 mm 0.12 in3.0 mm
09:30 AM 41.3°F5.2°C 45.6°F7.6°C 84% Calm Calm -- 29.90 in1012.5 mb 0.00 in0.0 mm 0.00 in0.0 mm 0.12 in3.0 mm
09:33 AM 41.5°F5.3°C 45.6°F7.6°C 85% Calm Calm -- 29.91 in1012.9 mb 0.00 in0.0 mm 0.00 in0.0 mm 0.12 in3.0 mm
09:36 AM 41.8°F5.4°C 45.5°F7.5°C 85% 0.4 mph W0.6 kmh W 0.4 mph0.6 kmh 29.91 in1012.9 mb 0.00 in0.0 mm 0.00 in0.0 mm 0.12 in3.0 mm
09:42 AM 42.6°F5.9°C 45.5°F7.5°C 85% 0.4 mph WNW0.6 kmh WNW 0.4 mph0.6 kmh 29.92 in1013.2 mb 0.00 in0.0 mm 0.00 in0.0 mm 0.12 in3.0 mm
09:45 AM 42.7°F5.9°C 45.7°F7.6°C 85% Calm Calm -- 29.92 in1013.2 mb 0.00 in0.0 mm 0.00 in0.0 mm 0.12 in3.0 mm
09:48 AM 42.8°F6.0°C 45.8°F7.7°C 85% Calm Calm -- 29.93 in1013.5 mb 0.00 in0.0 mm 0.00 in0.0 mm 0.12 in3.0 mm
09:51 AM 42.7°F5.9°C 45.8°F7.7°C 85% Calm Calm -- 29.93 in1013.5 mb 0.00 in0.0 mm 0.00 in0.0 mm 0.12 in3.0 mm
09:54 AM 42.6°F5.9°C 45.7°F7.6°C 85% Calm Calm -- 29.93 in1013.5 mb 0.00 in0.0 mm 0.00 in0.0 mm 0.12 in3.0 mm
09:57 AM 42.7°F5.9°C 45.7°F7.6°C 85% Calm Calm -- 29.93 in1013.5 mb 0.00 in0.0 mm 0.00 in0.0 mm 0.12 in3.0 mm
10:00 AM 42.9°F6.1°C 45.6°F7.6°C 85% 1.3 mph WNW2.1 kmh WNW 1.3 mph2.1 kmh 29.94 in1013.9 mb 0.00 in0.0 mm 0.00 in0.0 mm 0.12 in3.0 mm
10:03 AM 43.1°F6.2°C 45.8°F7.7°C 85% Calm Calm -- 29.94 in1013.9 mb 0.00 in0.0 mm 0.00 in0.0 mm 0.12 in3.0 mm
10:06 AM 43.3°F6.3°C 45.6°F7.6°C 84% Calm Calm -- 29.94 in1013.9 mb 0.00 in0.0 mm 0.00 in0.0 mm 0.12 in3.0 mm
10:09 AM 42.8°F6.0°C 46.0°F7.8°C 85% Calm Calm -- 29.94 in1013.9 mb 0.00 in0.0 mm 0.00 in0.0 mm 0.12 in3.0 mm
10:12 AM 42.4°F5.8°C 46.0°F7.8°C 85% Calm Calm -- 29.94 in1013.9 mb 0.00 in0.0 mm 0.00 in0.0 mm 0.12 in3.0 mm
10:15 AM 42.6°F5.9°C 45.8°F7.7°C 85% Calm Calm -- 29.94 in1013.9 mb 0.00 in0.0 mm 0.00 in0.0 mm 0.12 in3.0 mm
10:21 AM 43.5°F6.4°C 46.3°F7.9°C 85% 3.0 mph NW4.8 kmh NW 3.0 mph4.8 kmh 29.94 in1013.9 mb 0.00 in0.0 mm 0.00 in0.0 mm 0.12 in3.0 mm
10:24 AM 43.5°F6.4°C 46.3°F7.9°C 85% 2.1 mph W3.4 kmh W 2.1 mph3.4 kmh 29.94 in1013.9 mb 0.00 in0.0 mm 0.00 in0.0 mm 0.12 in3.0 mm
10:27 AM 43.4°F6.3°C 45.6°F7.6°C 83% 2.6 mph W4.2 kmh W 2.6 mph4.2 kmh 29.94 in1013.9 mb 0.00 in0.0 mm 0.00 in0.0 mm 0.12 in3.0 mm
10:30 AM 43.4°F6.3°C 45.5°F7.5°C 83% 2.6 mph NNW4.2 kmh NNW 2.6 mph4.2 kmh 29.94 in1013.9 mb 0.00 in0.0 mm 0.00 in0.0 mm 0.12 in3.0 mm
10:36 AM 44.6°F7.0°C 46.2°F7.9°C 84% 2.1 mph WNW3.4 kmh WNW 2.1 mph3.4 kmh 29.96 in1014.6 mb 0.00 in0.0 mm 0.00 in0.0 mm 0.12 in3.0 mm
10:39 AM 44.4°F6.9°C 46.1°F7.8°C 84% 2.1 mph NNW3.4 kmh NNW 2.1 mph3.4 kmh 29.96 in1014.6 mb 0.00 in0.0 mm 0.00 in0.0 mm 0.12 in3.0 mm
10:42 AM 44.6°F7.0°C 46.2°F7.9°C 84% 2.6 mph W4.2 kmh W 2.6 mph4.2 kmh 29.96 in1014.6 mb 0.00 in0.0 mm 0.00 in0.0 mm 0.12 in3.0 mm
10:45 AM 44.6°F7.0°C 46.2°F7.9°C 84% 0.9 mph NW1.4 kmh NW 0.9 mph1.4 kmh 29.96 in1014.6 mb 0.00 in0.0 mm 0.00 in0.0 mm 0.12 in3.0 mm
10:48 AM 44.5°F6.9°C 46.1°F7.8°C 84% 2.9 mph 4.7 kmh 2.9 mph4.7 kmh 29.96 in1014.6 mb 0.00 in0.0 mm 0.00 in0.0 mm 0.12 in3.0 mm
10:51 AM 44.4°F6.9°C 45.8°F7.7°C 83% 6.7 mph 10.8 kmh 6.7 mph10.8 kmh 29.96 in1014.6 mb 0.00 in0.0 mm 0.00 in0.0 mm 0.12 in3.0 mm
10:54 AM 44.0°F6.7°C 45.5°F7.5°C 82% 3.8 mph NNW6.1 kmh NNW 3.8 mph6.1 kmh 29.97 in1014.9 mb 0.00 in0.0 mm 0.00 in0.0 mm 0.12 in3.0 mm
10:57 AM 44.2°F6.8°C 45.5°F7.5°C 82% 3.4 mph 5.5 kmh 3.4 mph5.5 kmh 29.97 in1014.9 mb 0.00 in0.0 mm 0.00 in0.0 mm 0.12 in3.0 mm
11:00 AM 44.3°F6.8°C 45.5°F7.5°C 82% 3.0 mph NNW4.8 kmh NNW 3.0 mph4.8 kmh 29.97 in1014.9 mb 0.00 in0.0 mm 0.00 in0.0 mm 0.12 in3.0 mm
11:03 AM 44.5°F6.9°C 45.4°F7.4°C 81% 2.6 mph NNE4.2 kmh NNE 2.6 mph4.2 kmh 29.97 in1014.9 mb 0.00 in0.0 mm 0.00 in0.0 mm 0.12 in3.0 mm
11:06 AM 43.5°F6.4°C 44.5°F6.9°C 79% 6.0 mph NNW9.7 kmh NNW 6.0 mph9.7 kmh 29.97 in1014.9 mb 0.00 in0.0 mm 0.00 in0.0 mm 0.12 in3.0 mm
11:09 AM 42.4°F5.8°C 43.7°F6.5°C 78% 3.9 mph NE6.3 kmh NE 3.9 mph6.3 kmh 29.97 in1014.9 mb 0.00 in0.0 mm 0.00 in0.0 mm 0.12 in3.0 mm
11:12 AM 41.7°F5.4°C 42.5°F5.8°C 77% 8.1 mph NNW13.0 kmh NNW 8.1 mph13.0 kmh 29.97 in1014.9 mb 0.00 in0.0 mm 0.00 in0.0 mm 0.12 in3.0 mm
11:15 AM 41.7°F5.4°C 42.8°F6.0°C 79% 2.1 mph E3.4 kmh E 2.1 mph3.4 kmh 29.97 in1014.9 mb 0.00 in0.0 mm 0.00 in0.0 mm 0.12 in3.0 mm
11:18 AM 41.8°F5.4°C 42.7°F5.9°C 78% 5.6 mph NE9.0 kmh NE 5.6 mph9.0 kmh 29.97 in1014.9 mb 0.00 in0.0 mm 0.00 in0.0 mm 0.12 in3.0 mm
11:21 AM 41.8°F5.4°C 42.7°F5.9°C 78% 5.6 mph NE9.0 kmh NE 5.6 mph9.0 kmh 29.98 in1015.2 mb 0.00 in0.0 mm 0.00 in0.0 mm 0.12 in3.0 mm
11:24 AM 41.7°F5.4°C 42.6°F5.9°C 79% 2.1 mph NNE3.4 kmh NNE 2.1 mph3.4 kmh 29.98 in1015.2 mb 0.00 in0.0 mm 0.00 in0.0 mm 0.12 in3.0 mm
11:27 AM 41.9°F5.5°C 42.5°F5.8°C 79% 4.7 mph NNW7.6 kmh NNW 4.7 mph7.6 kmh 29.99 in1015.6 mb 0.00 in0.0 mm 0.00 in0.0 mm 0.12 in3.0 mm
11:30 AM 41.9°F5.5°C 42.7°F5.9°C 79% 1.3 mph E2.1 kmh E 1.3 mph2.1 kmh 29.98 in1015.2 mb 0.00 in0.0 mm 0.00 in0.0 mm 0.12 in3.0 mm
11:33 AM 41.8°F5.4°C 42.8°F6.0°C 79% 3.0 mph NE4.8 kmh NE 3.0 mph4.8 kmh 29.99 in1015.6 mb 0.00 in0.0 mm 0.00 in0.0 mm 0.12 in3.0 mm
11:36 AM 41.1°F5.1°C 42.9°F6.1°C 79% 5.1 mph NE8.2 kmh NE 5.1 mph8.2 kmh 29.99 in1015.6 mb 0.00 in0.0 mm 0.00 in0.0 mm 0.12 in3.0 mm
11:39 AM 41.0°F5.0°C 42.8°F6.0°C 79% 3.9 mph NE6.3 kmh NE 3.9 mph6.3 kmh 29.99 in1015.6 mb 0.00 in0.0 mm 0.00 in0.0 mm 0.12 in3.0 mm
11:42 AM 41.3°F5.2°C 42.9°F6.1°C 79% 2.0 mph NNW3.2 kmh NNW 2.0 mph3.2 kmh 29.99 in1015.6 mb 0.00 in0.0 mm 0.00 in0.0 mm 0.12 in3.0 mm
11:45 AM 41.8°F5.4°C 43.1°F6.2°C 79% 2.4 mph 3.9 kmh 2.4 mph3.9 kmh 29.99 in1015.6 mb 0.00 in0.0 mm 0.00 in0.0 mm 0.12 in3.0 mm
11:48 AM 41.7°F5.4°C 43.0°F6.1°C 78% Calm Calm -- 30.00 in1015.9 mb 0.00 in0.0 mm 0.00 in0.0 mm 0.12 in3.0 mm
11:51 AM 41.9°F5.5°C 43.1°F6.2°C 78% 0.4 mph NNE0.6 kmh NNE 0.4 mph0.6 kmh 29.99 in1015.6 mb 0.00 in0.0 mm 0.00 in0.0 mm 0.12 in3.0 mm
11:54 AM 41.9°F5.5°C 42.8°F6.0°C 77% 6.8 mph NNW10.9 kmh NNW 6.8 mph10.9 kmh 30.00 in1015.9 mb 0.00 in0.0 mm 0.00 in0.0 mm 0.12 in3.0 mm
11:57 AM 41.9°F5.5°C 41.8°F5.4°C 75% 2.8 mph NW4.5 kmh NW 2.9 mph4.7 kmh 30.00 in1015.9 mb 0.00 in0.0 mm 0.00 in0.0 mm 0.12 in3.0 mm
12:00 PM 41.7°F5.4°C 42.3°F5.7°C 76% 2.6 mph NNW4.2 kmh NNW 2.6 mph4.2 kmh 30.00 in1015.9 mb 0.00 in0.0 mm 0.00 in0.0 mm 0.12 in3.0 mm
12:03 PM 41.5°F5.3°C 42.2°F5.7°C 76% 2.0 mph NNW3.2 kmh NNW 2.0 mph3.2 kmh 30.00 in1015.9 mb 0.00 in0.0 mm 0.00 in0.0 mm 0.12 in3.0 mm
12:06 PM 41.3°F5.2°C 42.4°F5.8°C 76% 1.7 mph 2.7 kmh 1.7 mph2.7 kmh 30.00 in1015.9 mb 0.00 in0.0 mm 0.00 in0.0 mm 0.12 in3.0 mm
12:09 PM 41.3°F5.2°C 42.2°F5.7°C 76% 1.6 mph NW2.6 kmh NW 1.8 mph2.9 kmh 30.00 in1015.9 mb 0.00 in0.0 mm 0.00 in0.0 mm 0.12 in3.0 mm
12:12 PM 41.6°F5.3°C 42.0°F5.6°C 76% 2.0 mph NNW3.2 kmh NNW 2.0 mph3.2 kmh 30.00 in1015.9 mb 0.00 in0.0 mm 0.00 in0.0 mm 0.12 in3.0 mm
12:15 PM 41.3°F5.2°C 42.4°F5.8°C 76% 1.6 mph NW2.6 kmh NW 1.6 mph2.6 kmh 30.00 in1015.9 mb 0.00 in0.0 mm 0.00 in0.0 mm 0.12 in3.0 mm
12:18 PM 41.2°F5.1°C 42.0°F5.6°C 76% 2.0 mph NNW3.2 kmh NNW 2.0 mph3.2 kmh 30.00 in1015.9 mb 0.00 in0.0 mm 0.00 in0.0 mm 0.12 in3.0 mm
12:21 PM 41.6°F5.3°C 42.2°F5.7°C 77% Calm Calm -- 30.00 in1015.9 mb 0.00 in0.0 mm 0.00 in0.0 mm 0.12 in3.0 mm
12:24 PM 42.5°F5.8°C 42.2°F5.7°C 77% Calm Calm -- 30.00 in1015.9 mb 0.00 in0.0 mm 0.00 in0.0 mm 0.12 in3.0 mm
12:27 PM 43.3°F6.3°C 42.6°F5.9°C 76% Calm Calm -- 30.01 in1016.3 mb 0.00 in0.0 mm 0.00 in0.0 mm 0.12 in3.0 mm
12:30 PM 43.8°F6.6°C 43.0°F6.1°C 77% 2.0 mph 3.2 kmh 2.0 mph3.2 kmh 30.01 in1016.3 mb 0.00 in0.0 mm 0.00 in0.0 mm 0.12 in3.0 mm
12:33 PM 43.8°F6.6°C 43.0°F6.1°C 76% 1.8 mph NNW2.9 kmh NNW 2.0 mph3.2 kmh 30.01 in1016.3 mb 0.00 in0.0 mm 0.00 in0.0 mm 0.12 in3.0 mm
12:36 PM 43.3°F6.3°C 42.5°F5.8°C 75% 2.4 mph WNW3.9 kmh WNW 2.4 mph3.9 kmh 30.02 in1016.6 mb 0.00 in0.0 mm 0.00 in0.0 mm 0.12 in3.0 mm
12:39 PM 42.9°F6.1°C 42.8°F6.0°C 76% 1.6 mph NNW2.6 kmh NNW 1.6 mph2.6 kmh 30.02 in1016.6 mb 0.00 in0.0 mm 0.00 in0.0 mm 0.12 in3.0 mm
12:42 PM 42.6°F5.9°C 41.9°F5.5°C 74% 8.2 mph NW13.2 kmh NW 8.4 mph13.5 kmh 30.02 in1016.6 mb 0.00 in0.0 mm 0.00 in0.0 mm 0.12 in3.0 mm
12:45 PM 42.2°F5.7°C 41.7°F5.4°C 74% 4.4 mph 7.1 kmh 4.4 mph7.1 kmh 30.02 in1016.6 mb 0.00 in0.0 mm 0.00 in0.0 mm 0.12 in3.0 mm
12:48 PM 42.2°F5.7°C 41.2°F5.1°C 73% 2.0 mph NW3.2 kmh NW 2.0 mph3.2 kmh 30.02 in1016.6 mb 0.00 in0.0 mm 0.00 in0.0 mm 0.12 in3.0 mm
12:51 PM 42.9°F6.1°C 41.4°F5.2°C 74% 4.8 mph 7.7 kmh 4.8 mph7.7 kmh 30.03 in1016.9 mb 0.00 in0.0 mm 0.00 in0.0 mm 0.12 in3.0 mm
12:54 PM 43.7°F6.5°C 41.5°F5.3°C 74% 3.2 mph NW5.1 kmh NW 3.3 mph5.3 kmh 30.03 in1016.9 mb 0.00 in0.0 mm 0.00 in0.0 mm 0.12 in3.0 mm
12:57 PM 44.0°F6.7°C 42.1°F5.6°C 74% 4.0 mph NW6.4 kmh NW 4.0 mph6.4 kmh 30.03 in1016.9 mb 0.00 in0.0 mm 0.00 in0.0 mm 0.12 in3.0 mm
01:00 PM 44.0°F6.7°C 42.2°F5.7°C 74% 5.6 mph 9.0 kmh 5.6 mph9.0 kmh 30.03 in1016.9 mb 0.00 in0.0 mm 0.00 in0.0 mm 0.12 in3.0 mm
01:03 PM 43.8°F6.6°C 42.0°F5.6°C 73% 4.0 mph NNW6.4 kmh NNW 4.0 mph6.4 kmh 30.03 in1016.9 mb 0.00 in0.0 mm 0.00 in0.0 mm 0.12 in3.0 mm
01:06 PM 43.7°F6.5°C 41.9°F5.5°C 73% 7.0 mph 11.3 kmh 7.0 mph11.3 kmh 30.03 in1016.9 mb 0.00 in0.0 mm 0.00 in0.0 mm 0.12 in3.0 mm
01:09 PM 43.6°F6.4°C 40.9°F4.9°C 71% 11.9 mph NNW19.2 kmh NNW 11.9 mph19.2 kmh 30.03 in1016.9 mb 0.00 in0.0 mm 0.00 in0.0 mm 0.12 in3.0 mm
01:12 PM 43.6°F6.4°C 40.6°F4.8°C 70% 5.5 mph NW8.9 kmh NW 5.6 mph9.0 kmh 30.03 in1016.9 mb 0.00 in0.0 mm 0.00 in0.0 mm 0.12 in3.0 mm
01:15 PM 43.8°F6.6°C 40.8°F4.9°C 70% 7.3 mph 11.7 kmh 7.3 mph11.7 kmh 30.03 in1016.9 mb 0.00 in0.0 mm 0.00 in0.0 mm 0.12 in3.0 mm
01:18 PM 43.7°F6.5°C 40.6°F4.8°C 70% 2.8 mph NNW4.5 kmh NNW 2.8 mph4.5 kmh 30.03 in1016.9 mb 0.00 in0.0 mm 0.00 in0.0 mm 0.12 in3.0 mm
01:21 PM 43.8°F6.6°C 40.3°F4.6°C 68% 5.2 mph NNW8.4 kmh NNW 5.3 mph8.5 kmh 30.03 in1016.9 mb 0.00 in0.0 mm 0.00 in0.0 mm 0.12 in3.0 mm
01:24 PM 43.8°F6.6°C 40.8°F4.9°C 70% 3.5 mph 5.6 kmh 3.6 mph5.8 kmh 30.03 in1016.9 mb 0.00 in0.0 mm 0.00 in0.0 mm 0.12 in3.0 mm
01:27 PM 43.8°F6.6°C 41.3°F5.2°C 70% 1.8 mph NW2.9 kmh NW 2.0 mph3.2 kmh 30.03 in1016.9 mb 0.00 in0.0 mm 0.00 in0.0 mm 0.12 in3.0 mm
01:30 PM 44.0°F6.7°C 41.7°F5.4°C 71% 2.3 mph 3.7 kmh 2.5 mph4.0 kmh 30.04 in1017.3 mb 0.00 in0.0 mm 0.00 in0.0 mm 0.12 in3.0 mm
01:33 PM 43.9°F6.6°C 41.3°F5.2°C 70% 2.8 mph NNW4.5 kmh NNW 2.8 mph4.5 kmh 30.04 in1017.3 mb 0.00 in0.0 mm 0.00 in0.0 mm 0.12 in3.0 mm
01:36 PM 44.0°F6.7°C 41.7°F5.4°C 70% 4.8 mph 7.7 kmh 4.9 mph7.9 kmh 30.04 in1017.3 mb 0.00 in0.0 mm 0.00 in0.0 mm 0.12 in3.0 mm
01:39 PM 43.8°F6.6°C 41.2°F5.1°C 69% 4.4 mph WNW7.1 kmh WNW 4.5 mph7.2 kmh 30.04 in1017.3 mb 0.00 in0.0 mm 0.00 in0.0 mm 0.12 in3.0 mm
01:42 PM 43.9°F6.6°C 40.4°F4.7°C 67% 5.6 mph NNW9.0 kmh NNW 5.7 mph9.2 kmh 30.04 in1017.3 mb 0.00 in0.0 mm 0.00 in0.0 mm 0.12 in3.0 mm
01:45 PM 44.3°F6.8°C 40.2°F4.6°C 67% 2.9 mph NNW4.7 kmh NNW 3.2 mph5.1 kmh 30.05 in1017.6 mb 0.00 in0.0 mm 0.00 in0.0 mm 0.12 in3.0 mm
01:48 PM 44.3°F6.8°C 40.8°F4.9°C 68% 2.0 mph NNW3.2 kmh NNW 2.0 mph3.2 kmh 30.05 in1017.6 mb 0.00 in0.0 mm 0.00 in0.0 mm 0.12 in3.0 mm
01:51 PM 44.4°F6.9°C 41.6°F5.3°C 70% 4.5 mph NNW7.2 kmh NNW 4.5 mph7.2 kmh 30.05 in1017.6 mb 0.00 in0.0 mm 0.00 in0.0 mm 0.12 in3.0 mm
01:54 PM 44.4°F6.9°C 41.5°F5.3°C 70% 2.8 mph WNW4.5 kmh WNW 2.9 mph4.7 kmh 30.05 in1017.6 mb 0.00 in0.0 mm 0.00 in0.0 mm 0.12 in3.0 mm
01:57 PM 44.4°F6.9°C 41.3°F5.2°C 69% 6.9 mph NNW11.1 kmh NNW 6.9 mph11.1 kmh 30.06 in1017.9 mb 0.00 in0.0 mm 0.00 in0.0 mm 0.12 in3.0 mm
02:00 PM 44.4°F6.9°C 41.6°F5.3°C 70% 6.1 mph NNW9.8 kmh NNW 6.1 mph9.8 kmh 30.05 in1017.6 mb 0.00 in0.0 mm 0.00 in0.0 mm 0.12 in3.0 mm
02:03 PM 44.0°F6.7°C 40.6°F4.8°C 68% 6.9 mph NW11.1 kmh NW 6.9 mph11.1 kmh 30.06 in1017.9 mb 0.00 in0.0 mm 0.00 in0.0 mm 0.12 in3.0 mm
02:06 PM 44.0°F6.7°C 40.8°F4.9°C 69% 3.6 mph NW5.8 kmh NW 3.6 mph5.8 kmh 30.06 in1017.9 mb 0.00 in0.0 mm 0.00 in0.0 mm 0.12 in3.0 mm
02:09 PM 43.8°F6.6°C 41.1°F5.1°C 69% 5.3 mph NW8.5 kmh NW 5.3 mph8.5 kmh 30.06 in1017.9 mb 0.00 in0.0 mm 0.00 in0.0 mm 0.12 in3.0 mm
02:12 PM 43.6°F6.4°C 41.1°F5.1°C 69% 5.2 mph NNW8.4 kmh NNW 5.2 mph8.4 kmh 30.06 in1017.9 mb 0.00 in0.0 mm 0.00 in0.0 mm 0.12 in3.0 mm
02:15 PM 43.0°F6.1°C 40.8°F4.9°C 69% 4.0 mph WNW6.4 kmh WNW 4.1 mph6.6 kmh 30.06 in1017.9 mb 0.00 in0.0 mm 0.00 in0.0 mm 0.12 in3.0 mm
02:18 PM 42.9°F6.1°C 41.2°F5.1°C 70% 5.2 mph NW8.4 kmh NW 5.2 mph8.4 kmh 30.06 in1017.9 mb 0.00 in0.0 mm 0.00 in0.0 mm 0.12 in3.0 mm
02:21 PM 43.0°F6.1°C 41.2°F5.1°C 70% 2.6 mph NNW4.2 kmh NNW 2.6 mph4.2 kmh 30.07 in1018.3 mb 0.00 in0.0 mm 0.00 in0.0 mm 0.12 in3.0 mm
02:24 PM 42.9°F6.1°C 41.0°F5.0°C 70% 3.6 mph NNW5.8 kmh NNW 3.7 mph6.0 kmh 30.06 in1017.9 mb 0.00 in0.0 mm 0.00 in0.0 mm 0.12 in3.0 mm
02:27 PM 42.8°F6.0°C 41.0°F5.0°C 70% 4.8 mph NNW7.7 kmh NNW 4.8 mph7.7 kmh 30.07 in1018.3 mb 0.00 in0.0 mm 0.00 in0.0 mm 0.12 in3.0 mm
02:30 PM 42.9°F6.1°C 41.0°F5.0°C 70% 4.0 mph NW6.4 kmh NW 4.0 mph6.4 kmh 30.07 in1018.3 mb 0.00 in0.0 mm 0.00 in0.0 mm 0.12 in3.0 mm
02:33 PM 42.9°F6.1°C 41.0°F5.0°C 70% 4.4 mph NNW7.1 kmh NNW 4.4 mph7.1 kmh 30.07 in1018.3 mb 0.00 in0.0 mm 0.00 in0.0 mm 0.12 in3.0 mm
02:36 PM 42.9°F6.1°C 40.4°F4.7°C 69% 6.7 mph 10.8 kmh 6.8 mph10.9 kmh 30.07 in1018.3 mb 0.00 in0.0 mm 0.00 in0.0 mm 0.12 in3.0 mm
02:39 PM 42.9°F6.1°C 40.5°F4.7°C 69% 2.6 mph NNW4.2 kmh NNW 2.6 mph4.2 kmh 30.08 in1018.6 mb 0.00 in0.0 mm 0.00 in0.0 mm 0.12 in3.0 mm
02:42 PM 42.9°F6.1°C 40.7°F4.8°C 70% 4.9 mph NNW7.9 kmh NNW 4.9 mph7.9 kmh 30.08 in1018.6 mb 0.00 in0.0 mm 0.00 in0.0 mm 0.12 in3.0 mm
02:45 PM 42.9°F6.1°C 40.5°F4.7°C 70% 4.8 mph NW7.7 kmh NW 4.8 mph7.7 kmh 30.08 in1018.6 mb 0.00 in0.0 mm 0.00 in0.0 mm 0.12 in3.0 mm
02:48 PM 42.8°F6.0°C 40.5°F4.7°C 70% 4.0 mph NW6.4 kmh NW 4.1 mph6.6 kmh 30.08 in1018.6 mb 0.00 in0.0 mm 0.00 in0.0 mm 0.12 in3.0 mm
02:51 PM 42.9°F6.1°C 40.6°F4.8°C 70% 4.0 mph NNW6.4 kmh NNW 4.0 mph6.4 kmh 30.08 in1018.6 mb 0.00 in0.0 mm 0.00 in0.0 mm 0.12 in3.0 mm
02:54 PM 42.7°F5.9°C 40.5°F4.7°C 70% 5.8 mph NW9.3 kmh NW 5.8 mph9.3 kmh 30.08 in1018.6 mb 0.00 in0.0 mm 0.00 in0.0 mm 0.12 in3.0 mm
02:57 PM 42.6°F5.9°C 40.5°F4.7°C 70% 3.8 mph NW6.1 kmh NW 3.9 mph6.3 kmh 30.08 in1018.6 mb 0.00 in0.0 mm 0.00 in0.0 mm 0.12 in3.0 mm
03:00 PM 42.4°F5.8°C 40.6°F4.8°C 71% 4.4 mph NNW7.1 kmh NNW 4.8 mph7.7 kmh 30.08 in1018.6 mb 0.00 in0.0 mm 0.00 in0.0 mm 0.12 in3.0 mm
03:03 PM 42.2°F5.7°C 40.7°F4.8°C 71% 4.4 mph NNW7.1 kmh NNW 4.4 mph7.1 kmh 30.09 in1019.0 mb 0.00 in0.0 mm 0.00 in0.0 mm 0.12 in3.0 mm
03:06 PM 42.2°F5.7°C 40.5°F4.7°C 71% 2.8 mph NNW4.5 kmh NNW 2.9 mph4.7 kmh 30.10 in1019.3 mb 0.00 in0.0 mm 0.00 in0.0 mm 0.12 in3.0 mm
03:09 PM 42.0°F5.6°C 41.0°F5.0°C 72% 3.6 mph NW5.8 kmh NW 3.6 mph5.8 kmh 30.10 in1019.3 mb 0.00 in0.0 mm 0.00 in0.0 mm 0.12 in3.0 mm
03:12 PM 42.0°F5.6°C 40.9°F4.9°C 73% 4.0 mph NW6.4 kmh NW 4.1 mph6.6 kmh 30.10 in1019.3 mb 0.00 in0.0 mm 0.00 in0.0 mm 0.12 in3.0 mm
03:15 PM 41.8°F5.4°C 40.9°F4.9°C 72% 5.3 mph 8.5 kmh 5.3 mph8.5 kmh 30.10 in1019.3 mb 0.00 in0.0 mm 0.00 in0.0 mm 0.12 in3.0 mm
03:18 PM 41.6°F5.3°C 40.8°F4.9°C 72% 1.2 mph NNW1.9 kmh NNW 1.2 mph1.9 kmh 30.10 in1019.3 mb 0.00 in0.0 mm 0.00 in0.0 mm 0.12 in3.0 mm
03:21 PM 41.2°F5.1°C 40.7°F4.8°C 73% 1.2 mph NW1.9 kmh NW 1.2 mph1.9 kmh 30.10 in1019.3 mb 0.00 in0.0 mm 0.00 in0.0 mm 0.12 in3.0 mm
03:24 PM 40.9°F4.9°C 40.6°F4.8°C 72% 0.4 mph NNW0.6 kmh NNW 0.4 mph0.6 kmh 30.10 in1019.3 mb 0.00 in0.0 mm 0.00 in0.0 mm 0.12 in3.0 mm
03:27 PM 40.8°F4.9°C 40.6°F4.8°C 72% 2.4 mph NNW3.9 kmh NNW 2.4 mph3.9 kmh 30.10 in1019.3 mb 0.00 in0.0 mm 0.00 in0.0 mm 0.12 in3.0 mm
03:30 PM 40.7°F4.8°C 40.6°F4.8°C 72% 2.8 mph NNW4.5 kmh NNW 2.8 mph4.5 kmh 30.10 in1019.3 mb 0.00 in0.0 mm 0.00 in0.0 mm 0.12 in3.0 mm
03:33 PM 40.2°F4.6°C 40.7°F4.8°C 73% 1.2 mph NNW1.9 kmh NNW 1.2 mph1.9 kmh 30.10 in1019.3 mb 0.00 in0.0 mm 0.00 in0.0 mm 0.12 in3.0 mm
03:36 PM 40.0°F4.4°C 40.2°F4.6°C 73% 1.2 mph 1.9 kmh 1.2 mph1.9 kmh 30.11 in1019.6 mb 0.00 in0.0 mm 0.00 in0.0 mm 0.12 in3.0 mm
03:39 PM 39.8°F4.3°C 40.6°F4.8°C 73% Calm Calm -- 30.11 in1019.6 mb 0.00 in0.0 mm 0.00 in0.0 mm 0.12 in3.0 mm
03:42 PM 39.4°F4.1°C 40.6°F4.8°C 74% 0.8 mph W1.3 kmh W 0.8 mph1.3 kmh 30.11 in1019.6 mb 0.00 in0.0 mm 0.00 in0.0 mm 0.12 in3.0 mm
03:45 PM 39.3°F4.1°C 40.4°F4.7°C 73% 3.6 mph NW5.8 kmh NW 3.6 mph5.8 kmh 30.11 in1019.6 mb 0.00 in0.0 mm 0.00 in0.0 mm 0.12 in3.0 mm
03:48 PM 39.5°F4.2°C 40.3°F4.6°C 74% 1.6 mph NNW2.6 kmh NNW 1.6 mph2.6 kmh 30.12 in1020.0 mb 0.00 in0.0 mm 0.00 in0.0 mm 0.12 in3.0 mm
03:51 PM 39.3°F4.1°C 40.5°F4.7°C 74% 1.6 mph NNW2.6 kmh NNW 1.6 mph2.6 kmh 30.12 in1020.0 mb 0.00 in0.0 mm 0.00 in0.0 mm 0.12 in3.0 mm
03:54 PM 39.1°F3.9°C 40.2°F4.6°C 74% Calm Calm -- 30.12 in1020.0 mb 0.00 in0.0 mm 0.00 in0.0 mm 0.12 in3.0 mm
03:57 PM 39.0°F3.9°C 40.3°F4.6°C 75% Calm Calm -- 30.13 in1020.3 mb 0.00 in0.0 mm 0.00 in0.0 mm 0.12 in3.0 mm
04:00 PM 38.9°F3.8°C 40.2°F4.6°C 75% 0.8 mph NNW1.3 kmh NNW 0.8 mph1.3 kmh 30.12 in1020.0 mb 0.00 in0.0 mm 0.00 in0.0 mm 0.12 in3.0 mm
04:03 PM 38.8°F3.8°C 40.2°F4.6°C 75% 3.8 mph NNW6.1 kmh NNW 3.8 mph6.1 kmh 30.12 in1020.0 mb 0.00 in0.0 mm 0.00 in0.0 mm 0.12 in3.0 mm
04:06 PM 38.6°F3.7°C 40.1°F4.5°C 75% 1.6 mph 2.6 kmh 1.6 mph2.6 kmh 30.13 in1020.3 mb 0.00 in0.0 mm 0.00 in0.0 mm 0.12 in3.0 mm
04:09 PM 38.5°F3.6°C 40.1°F4.5°C 76% 1.2 mph NNW1.9 kmh NNW 1.2 mph1.9 kmh 30.13 in1020.3 mb 0.00 in0.0 mm 0.00 in0.0 mm 0.12 in3.0 mm
04:12 PM 38.1°F3.4°C 39.9°F4.4°C 76% 1.6 mph 2.6 kmh 1.6 mph2.6 kmh 30.13 in1020.3 mb 0.00 in0.0 mm 0.00 in0.0 mm 0.12 in3.0 mm
04:15 PM 38.0°F3.3°C 40.1°F4.5°C 76% 1.6 mph WNW2.6 kmh WNW 1.6 mph2.6 kmh 30.13 in1020.3 mb 0.00 in0.0 mm 0.00 in0.0 mm 0.12 in3.0 mm
04:18 PM 38.0°F3.3°C 40.3°F4.6°C 77% 3.2 mph NW5.1 kmh NW 3.3 mph5.3 kmh 30.13 in1020.3 mb 0.00 in0.0 mm 0.00 in0.0 mm 0.12 in3.0 mm
04:21 PM 37.5°F3.1°C 40.0°F4.4°C 77% Calm Calm -- 30.13 in1020.3 mb 0.00 in0.0 mm 0.00 in0.0 mm 0.12 in3.0 mm
04:24 PM 37.3°F2.9°C 40.1°F4.5°C 77% Calm Calm -- 30.13 in1020.3 mb 0.00 in0.0 mm 0.00 in0.0 mm 0.12 in3.0 mm
04:27 PM 37.1°F2.8°C 39.8°F4.3°C 77% Calm Calm -- 30.14 in1020.7 mb 0.00 in0.0 mm 0.00 in0.0 mm 0.12 in3.0 mm
04:30 PM 36.8°F2.7°C 40.1°F4.5°C 77% Calm Calm -- 30.14 in1020.7 mb 0.00 in0.0 mm 0.00 in0.0 mm 0.12 in3.0 mm
04:33 PM 36.5°F2.5°C 39.8°F4.3°C 77% 0.4 mph NW0.6 kmh NW 0.4 mph0.6 kmh 30.14 in1020.7 mb 0.00 in0.0 mm 0.00 in0.0 mm 0.12 in3.0 mm
04:36 PM 36.3°F2.4°C 39.5°F4.2°C 77% Calm Calm -- 30.15 in1021.0 mb 0.00 in0.0 mm 0.00 in0.0 mm 0.12 in3.0 mm
04:39 PM 36.2°F2.3°C 39.7°F4.3°C 77% Calm Calm -- 30.15 in1021.0 mb 0.00 in0.0 mm 0.00 in0.0 mm 0.12 in3.0 mm
04:42 PM 36.2°F2.3°C 39.7°F4.3°C 78% Calm Calm -- 30.15 in1021.0 mb 0.00 in0.0 mm 0.00 in0.0 mm 0.12 in3.0 mm
04:45 PM 36.1°F2.3°C 39.5°F4.2°C 77% Calm Calm -- 30.15 in1021.0 mb 0.00 in0.0 mm 0.00 in0.0 mm 0.12 in3.0 mm
04:48 PM 35.5°F1.9°C 39.5°F4.2°C 77% Calm Calm -- 30.16 in1021.3 mb 0.00 in0.0 mm 0.00 in0.0 mm 0.12 in3.0 mm
04:51 PM 34.5°F1.4°C 39.1°F3.9°C 77% Calm Calm -- 30.16 in1021.3 mb 0.00 in0.0 mm 0.00 in0.0 mm 0.12 in3.0 mm
04:54 PM 34.1°F1.2°C 38.6°F3.7°C 76% Calm Calm -- 30.16 in1021.3 mb 0.00 in0.0 mm 0.00 in0.0 mm 0.12 in3.0 mm
04:57 PM 34.3°F1.3°C 38.6°F3.7°C 77% Calm Calm -- 30.16 in1021.3 mb 0.00 in0.0 mm 0.00 in0.0 mm 0.12 in3.0 mm
05:00 PM 34.6°F1.4°C 38.6°F3.7°C 77% Calm Calm -- 30.16 in1021.3 mb 0.00 in0.0 mm 0.00 in0.0 mm 0.12 in3.0 mm
05:03 PM 34.0°F1.1°C 38.4°F3.6°C 78% Calm Calm -- 30.17 in1021.7 mb 0.00 in0.0 mm 0.00 in0.0 mm 0.12 in3.0 mm
05:06 PM 34.0°F1.1°C 38.4°F3.6°C 77% Calm Calm -- 30.16 in1021.3 mb 0.00 in0.0 mm 0.00 in0.0 mm 0.12 in3.0 mm
05:09 PM 34.0°F1.1°C 38.4°F3.6°C 78% Calm Calm -- 30.16 in1021.3 mb 0.00 in0.0 mm 0.00 in0.0 mm 0.12 in3.0 mm
05:12 PM 34.7°F1.5°C 38.3°F3.5°C 78% Calm Calm -- 30.16 in1021.3 mb 0.00 in0.0 mm 0.00 in0.0 mm 0.12 in3.0 mm
05:15 PM 34.9°F1.6°C 38.8°F3.8°C 79% 1.6 mph 2.6 kmh 1.6 mph2.6 kmh 30.16 in1021.3 mb 0.00 in0.0 mm 0.00 in0.0 mm 0.12 in3.0 mm
05:18 PM 34.5°F1.4°C 38.5°F3.6°C 79% 0.8 mph NNW1.3 kmh NNW 0.8 mph1.3 kmh 30.16 in1021.3 mb 0.00 in0.0 mm 0.00 in0.0 mm 0.12 in3.0 mm
05:21 PM 34.4°F1.3°C 38.5°F3.6°C 80% Calm Calm -- 30.17 in1021.7 mb 0.00 in0.0 mm 0.00 in0.0 mm 0.12 in3.0 mm
05:24 PM 33.9°F1.1°C 38.6°F3.7°C 80% Calm Calm -- 30.17 in1021.7 mb 0.00 in0.0 mm 0.00 in0.0 mm 0.12 in3.0 mm
05:27 PM 33.4°F0.8°C 38.4°F3.6°C 79% Calm Calm -- 30.17 in1021.7 mb 0.00 in0.0 mm 0.00 in0.0 mm 0.12 in3.0 mm
05:30 PM 33.6°F0.9°C 38.1°F3.4°C 80% Calm Calm -- 30.17 in1021.7 mb 0.00 in0.0 mm 0.00 in0.0 mm 0.12 in3.0 mm
05:33 PM 33.2°F0.7°C 38.1°F3.4°C 80% Calm Calm -- 30.17 in1021.7 mb 0.00 in0.0 mm 0.00 in0.0 mm 0.12 in3.0 mm
05:36 PM 33.4°F0.8°C 38.1°F3.4°C 80% 0.8 mph NNW1.3 kmh NNW 0.8 mph1.3 kmh 30.18 in1022.0 mb 0.00 in0.0 mm 0.00 in0.0 mm 0.12 in3.0 mm
05:39 PM 33.2°F0.7°C 38.1°F3.4°C 80% Calm Calm -- 30.18 in1022.0 mb 0.00 in0.0 mm 0.00 in0.0 mm 0.12 in3.0 mm
05:42 PM 33.2°F0.7°C 37.9°F3.3°C 80% Calm Calm -- 30.18 in1022.0 mb 0.00 in0.0 mm 0.00 in0.0 mm 0.12 in3.0 mm
05:45 PM 32.9°F0.5°C 37.7°F3.2°C 80% Calm Calm -- 30.18 in1022.0 mb 0.00 in0.0 mm 0.00 in0.0 mm 0.12 in3.0 mm
05:48 PM 32.1°F0.1°C 37.5°F3.1°C 80% Calm Calm -- 30.18 in1022.0 mb 0.00 in0.0 mm 0.00 in0.0 mm 0.12 in3.0 mm
05:51 PM 32.6°F0.3°C 37.2°F2.9°C 80% Calm Calm -- 30.18 in1022.0 mb 0.00 in0.0 mm 0.00 in0.0 mm 0.12 in3.0 mm
05:54 PM 30.7°F-0.7°C 36.6°F2.6°C 78% Calm Calm -- 30.19 in1022.4 mb 0.00 in0.0 mm 0.00 in0.0 mm 0.12 in3.0 mm
05:57 PM 30.8°F-0.7°C 36.6°F2.6°C 79% Calm Calm -- 30.19 in1022.4 mb 0.00 in0.0 mm 0.00 in0.0 mm 0.12 in3.0 mm
06:00 PM 30.9°F-0.6°C 36.3°F2.4°C 79% Calm Calm -- 30.19 in1022.4 mb 0.00 in0.0 mm 0.00 in0.0 mm 0.12 in3.0 mm
06:03 PM 30.5°F-0.8°C 36.2°F2.3°C 79% Calm Calm -- 30.19 in1022.4 mb 0.00 in0.0 mm 0.00 in0.0 mm 0.12 in3.0 mm
06:06 PM 31.2°F-0.4°C 36.4°F2.4°C 80% Calm Calm -- 30.19 in1022.4 mb 0.00 in0.0 mm 0.00 in0.0 mm 0.12 in3.0 mm
06:09 PM 30.4°F-0.9°C 36.2°F2.3°C 80% Calm Calm -- 30.19 in1022.4 mb 0.00 in0.0 mm 0.00 in0.0 mm 0.12 in3.0 mm
06:12 PM 30.5°F-0.8°C 36.5°F2.5°C 82% Calm Calm -- 30.19 in1022.4 mb 0.00 in0.0 mm 0.00 in0.0 mm 0.12 in3.0 mm
06:15 PM 30.4°F-0.9°C 36.1°F2.3°C 81% Calm Calm -- 30.19 in1022.4 mb 0.00 in0.0 mm 0.00 in0.0 mm 0.12 in3.0 mm
06:18 PM 29.5°F-1.4°C 35.9°F2.2°C 81% Calm Calm -- 30.20 in1022.7 mb 0.00 in0.0 mm 0.00 in0.0 mm 0.12 in3.0 mm
06:21 PM 30.1°F-1.1°C 35.6°F2.0°C 81% Calm Calm -- 30.20 in1022.7 mb 0.00 in0.0 mm 0.00 in0.0 mm 0.12 in3.0 mm
06:24 PM 29.5°F-1.4°C 35.3°F1.8°C 80% Calm Calm -- 30.20 in1022.7 mb 0.00 in0.0 mm 0.00 in0.0 mm 0.12 in3.0 mm
06:27 PM 29.5°F-1.4°C 35.4°F1.9°C 80% Calm Calm -- 30.20 in1022.7 mb 0.00 in0.0 mm 0.00 in0.0 mm 0.12 in3.0 mm
06:30 PM 28.7°F-1.8°C 35.4°F1.9°C 80% Calm Calm -- 30.20 in1022.7 mb 0.00 in0.0 mm 0.00 in0.0 mm 0.12 in3.0 mm
06:33 PM 29.1°F-1.6°C 34.8°F1.6°C 79% Calm Calm -- 30.20 in1022.7 mb 0.00 in0.0 mm 0.00 in0.0 mm 0.12 in3.0 mm
06:36 PM 29.2°F-1.6°C 35.0°F1.7°C 80% Calm Calm -- 30.20 in1022.7 mb 0.00 in0.0 mm 0.00 in0.0 mm 0.12 in3.0 mm
06:39 PM 28.7°F-1.8°C 34.8°F1.6°C 80% Calm Calm -- 30.21 in1023.0 mb 0.00 in0.0 mm 0.00 in0.0 mm 0.12 in3.0 mm
06:42 PM 29.0°F-1.7°C 35.0°F1.7°C 80% Calm Calm -- 30.21 in1023.0 mb 0.00 in0.0 mm 0.00 in0.0 mm 0.12 in3.0 mm
06:45 PM 28.7°F-1.8°C 34.4°F1.3°C 79% Calm Calm -- 30.21 in1023.0 mb 0.00 in0.0 mm 0.00 in0.0 mm 0.12 in3.0 mm
06:48 PM 28.4°F-2.0°C 34.4°F1.3°C 79% Calm Calm -- 30.21 in1023.0 mb 0.00 in0.0 mm 0.00 in0.0 mm 0.12 in3.0 mm
06:51 PM 28.4°F-2.0°C 34.3°F1.3°C 79% Calm Calm -- 30.21 in1023.0 mb 0.00 in0.0 mm 0.00 in0.0 mm 0.12 in3.0 mm
06:54 PM 28.5°F-1.9°C 34.2°F1.2°C 80% Calm Calm -- 30.21 in1023.0 mb 0.00 in0.0 mm 0.00 in0.0 mm 0.12 in3.0 mm
06:57 PM 28.1°F-2.2°C 33.9°F1.1°C 79% Calm Calm -- 30.21 in1023.0 mb 0.00 in0.0 mm 0.00 in0.0 mm 0.12 in3.0 mm
07:00 PM 28.3°F-2.1°C 34.0°F1.1°C 80% Calm Calm -- 30.21 in1023.0 mb 0.00 in0.0 mm 0.00 in0.0 mm 0.12 in3.0 mm
07:03 PM 28.3°F-2.1°C 34.4°F1.3°C 81% Calm Calm -- 30.21 in1023.0 mb 0.00 in0.0 mm 0.00 in0.0 mm 0.12 in3.0 mm
07:06 PM 28.0°F-2.2°C 34.6°F1.4°C 82% Calm Calm -- 30.21 in1023.0 mb 0.00 in0.0 mm 0.00 in0.0 mm 0.12 in3.0 mm
07:09 PM 27.6°F-2.4°C 34.0°F1.1°C 81% Calm Calm -- 30.21 in1023.0 mb 0.00 in0.0 mm 0.00 in0.0 mm 0.12 in3.0 mm
07:12 PM 27.6°F-2.4°C 33.9°F1.1°C 80% Calm Calm -- 30.21 in1023.0 mb 0.00 in0.0 mm 0.00 in0.0 mm 0.12 in3.0 mm
07:15 PM 27.3°F-2.6°C 33.7°F0.9°C 81% Calm Calm -- 30.22 in1023.4 mb 0.00 in0.0 mm 0.00 in0.0 mm 0.12 in3.0 mm
07:18 PM 27.6°F-2.4°C 33.0°F0.6°C 79% Calm Calm -- 30.22 in1023.4 mb 0.00 in0.0 mm 0.00 in0.0 mm 0.12 in3.0 mm
07:21 PM 27.7°F-2.4°C 33.4°F0.8°C 80% Calm Calm -- 30.22 in1023.4 mb 0.00 in0.0 mm 0.00 in0.0 mm 0.12 in3.0 mm
07:24 PM 27.5°F-2.5°C 33.4°F0.8°C 81% Calm Calm -- 30.22 in1023.4 mb 0.00 in0.0 mm 0.00 in0.0 mm 0.12 in3.0 mm
07:27 PM 27.8°F-2.3°C 33.6°F0.9°C 82% Calm Calm -- 30.22 in1023.4 mb 0.00 in0.0 mm 0.00 in0.0 mm 0.12 in3.0 mm
07:30 PM 27.6°F-2.4°C 33.9°F1.1°C 82% Calm Calm -- 30.22 in1023.4 mb 0.00 in0.0 mm 0.00 in0.0 mm 0.12 in3.0 mm
07:33 PM 27.4°F-2.6°C 33.5°F0.8°C 81% Calm Calm -- 30.22 in1023.4 mb 0.00 in0.0 mm 0.00 in0.0 mm 0.12 in3.0 mm
07:36 PM 26.6°F-3.0°C 33.2°F0.7°C 80% Calm Calm -- 30.23 in1023.7 mb 0.00 in0.0 mm 0.00 in0.0 mm 0.12 in3.0 mm
07:39 PM 27.1°F-2.7°C 33.3°F0.7°C 81% Calm Calm -- 30.23 in1023.7 mb 0.00 in0.0 mm 0.00 in0.0 mm 0.12 in3.0 mm
07:42 PM 27.1°F-2.7°C 33.5°F0.8°C 82% Calm Calm -- 30.23 in1023.7 mb 0.00 in0.0 mm 0.00 in0.0 mm 0.12 in3.0 mm
07:45 PM 26.8°F-2.9°C 33.2°F0.7°C 81% Calm Calm -- 30.23 in1023.7 mb 0.00 in0.0 mm 0.00 in0.0 mm 0.12 in3.0 mm
07:48 PM 26.7°F-2.9°C 33.2°F0.7°C 81% Calm Calm -- 30.23 in1023.7 mb 0.00 in0.0 mm 0.00 in0.0 mm 0.12 in3.0 mm
07:51 PM 26.8°F-2.9°C 33.0°F0.6°C 81% Calm Calm -- 30.23 in1023.7 mb 0.00 in0.0 mm 0.00 in0.0 mm 0.12 in3.0 mm
07:54 PM 26.7°F-2.9°C 33.0°F0.6°C 81% Calm Calm -- 30.23 in1023.7 mb 0.00 in0.0 mm 0.00 in0.0 mm 0.12 in3.0 mm
07:57 PM 26.9°F-2.8°C 32.7°F0.4°C 81% Calm Calm -- 30.23 in1023.7 mb 0.00 in0.0 mm 0.00 in0.0 mm 0.12 in3.0 mm
08:00 PM 26.7°F-2.9°C 32.8°F0.4°C 81% Calm Calm -- 30.23 in1023.7 mb 0.00 in0.0 mm 0.00 in0.0 mm 0.12 in3.0 mm
08:03 PM 26.5°F-3.1°C 32.4°F0.2°C 80% Calm Calm -- 30.23 in1023.7 mb 0.00 in0.0 mm 0.00 in0.0 mm 0.12 in3.0 mm
08:06 PM 27.3°F-2.6°C 32.9°F0.5°C 82% Calm Calm -- 30.23 in1023.7 mb 0.00 in0.0 mm 0.00 in0.0 mm 0.12 in3.0 mm
08:09 PM 27.3°F-2.6°C 32.8°F0.4°C 82% Calm Calm -- 30.23 in1023.7 mb 0.00 in0.0 mm 0.00 in0.0 mm 0.12 in3.0 mm
08:12 PM 26.6°F-3.0°C 32.6°F0.3°C 82% Calm Calm -- 30.23 in1023.7 mb 0.00 in0.0 mm 0.00 in0.0 mm 0.12 in3.0 mm
08:15 PM 26.6°F-3.0°C 32.4°F0.2°C 81% Calm Calm -- 30.23 in1023.7 mb 0.00 in0.0 mm 0.00 in0.0 mm 0.12 in3.0 mm
08:18 PM 26.2°F-3.2°C 32.3°F0.2°C 82% Calm Calm -- 30.24 in1024.0 mb 0.00 in0.0 mm 0.00 in0.0 mm 0.12 in3.0 mm
08:21 PM 26.3°F-3.2°C 32.5°F0.3°C 82% Calm Calm -- 30.24 in1024.0 mb 0.00 in0.0 mm 0.00 in0.0 mm 0.12 in3.0 mm
08:24 PM 26.0°F-3.3°C 32.3°F0.2°C 82% Calm Calm -- 30.25 in1024.4 mb 0.00 in0.0 mm 0.00 in0.0 mm 0.12 in3.0 mm
08:27 PM 26.3°F-3.2°C 32.1°F0.1°C 81% Calm Calm -- 30.25 in1024.4 mb 0.00 in0.0 mm 0.00 in0.0 mm 0.12 in3.0 mm
08:30 PM 25.9°F-3.4°C 32.1°F0.1°C 81% Calm Calm -- 30.25 in1024.4 mb 0.00 in0.0 mm 0.00 in0.0 mm 0.12 in3.0 mm
08:33 PM 26.2°F-3.2°C 32.2°F0.1°C 82% Calm Calm -- 30.24 in1024.0 mb 0.00 in0.0 mm 0.00 in0.0 mm 0.12 in3.0 mm
08:36 PM 26.7°F-2.9°C 32.2°F0.1°C 82% Calm Calm -- 30.25 in1024.4 mb 0.00 in0.0 mm 0.00 in0.0 mm 0.12 in3.0 mm
08:39 PM 25.0°F-3.9°C 31.5°F-0.3°C 80% Calm Calm -- 30.25 in1024.4 mb 0.00 in0.0 mm 0.00 in0.0 mm 0.12 in3.0 mm
08:42 PM 25.7°F-3.5°C 31.9°F-0.1°C 82% Calm Calm -- 30.25 in1024.4 mb 0.00 in0.0 mm 0.00 in0.0 mm 0.12 in3.0 mm
08:45 PM 26.0°F-3.3°C 31.6°F-0.2°C 83% Calm Calm -- 30.25 in1024.4 mb 0.00 in0.0 mm 0.00 in0.0 mm 0.12 in3.0 mm
08:48 PM 26.6°F-3.0°C 32.1°F0.1°C 83% Calm Calm -- 30.25 in1024.4 mb 0.00 in0.0 mm 0.00 in0.0 mm 0.12 in3.0 mm
08:54 PM 26.9°F-2.8°C 31.8°F-0.1°C 83% Calm Calm -- 30.25 in1024.4 mb 0.00 in0.0 mm 0.00 in0.0 mm 0.12 in3.0 mm
08:57 PM 25.9°F-3.4°C 31.8°F-0.1°C 83% Calm Calm -- 30.25 in1024.4 mb 0.00 in0.0 mm 0.00 in0.0 mm 0.12 in3.0 mm
09:00 PM 26.2°F-3.2°C 31.8°F-0.1°C 83% Calm Calm -- 30.26 in1024.7 mb 0.00 in0.0 mm 0.00 in0.0 mm 0.12 in3.0 mm
09:03 PM 26.3°F-3.2°C 31.9°F-0.1°C 83% Calm Calm -- 30.26 in1024.7 mb 0.00 in0.0 mm 0.00 in0.0 mm 0.12 in3.0 mm
09:06 PM 26.2°F-3.2°C 31.9°F-0.1°C 83% Calm Calm -- 30.26 in1024.7 mb 0.00 in0.0 mm 0.00 in0.0 mm 0.12 in3.0 mm
09:09 PM 25.5°F-3.6°C 31.6°F-0.2°C 83% Calm Calm -- 30.26 in1024.7 mb 0.00 in0.0 mm 0.00 in0.0 mm 0.12 in3.0 mm
09:12 PM 25.8°F-3.4°C 31.6°F-0.2°C 83% Calm Calm -- 30.26 in1024.7 mb 0.00 in0.0 mm 0.00 in0.0 mm 0.12 in3.0 mm
09:15 PM 25.6°F-3.6°C 31.6°F-0.2°C 83% Calm Calm -- 30.26 in1024.7 mb 0.00 in0.0 mm 0.00 in0.0 mm 0.12 in3.0 mm
09:18 PM 26.6°F-3.0°C 31.7°F-0.2°C 84% Calm Calm -- 30.26 in1024.7 mb 0.00 in0.0 mm 0.00 in0.0 mm 0.12 in3.0 mm
09:21 PM 26.5°F-3.1°C 32.2°F0.1°C 85% Calm Calm -- 30.26 in1024.7 mb 0.00 in0.0 mm 0.00 in0.0 mm 0.12 in3.0 mm
09:24 PM 26.0°F-3.3°C 31.8°F-0.1°C 84% Calm Calm -- 30.26 in1024.7 mb 0.00 in0.0 mm 0.00 in0.0 mm 0.12 in3.0 mm
09:27 PM 25.7°F-3.5°C 31.7°F-0.2°C 83% Calm Calm -- 30.27 in1025.1 mb 0.00 in0.0 mm 0.00 in0.0 mm 0.12 in3.0 mm
09:30 PM 26.3°F-3.2°C 31.4°F-0.3°C 83% Calm Calm -- 30.27 in1025.1 mb 0.00 in0.0 mm 0.00 in0.0 mm 0.12 in3.0 mm
09:33 PM 26.6°F-3.0°C 31.3°F-0.4°C 83% Calm Calm -- 30.28 in1025.4 mb 0.00 in0.0 mm 0.00 in0.0 mm 0.12 in3.0 mm
09:36 PM 26.7°F-2.9°C 31.1°F-0.5°C 83% Calm Calm -- 30.28 in1025.4 mb 0.00 in0.0 mm 0.00 in0.0 mm 0.12 in3.0 mm
09:39 PM 26.5°F-3.1°C 31.1°F-0.5°C 83% Calm Calm -- 30.28 in1025.4 mb 0.00 in0.0 mm 0.00 in0.0 mm 0.12 in3.0 mm
09:42 PM 26.3°F-3.2°C 31.6°F-0.2°C 84% Calm Calm -- 30.28 in1025.4 mb 0.00 in0.0 mm 0.00 in0.0 mm 0.12 in3.0 mm
09:45 PM 26.6°F-3.0°C 31.4°F-0.3°C 84% Calm Calm -- 30.28 in1025.4 mb 0.00 in0.0 mm 0.00 in0.0 mm 0.12 in3.0 mm
09:48 PM 26.5°F-3.1°C 31.6°F-0.2°C 84% Calm Calm -- 30.28 in1025.4 mb 0.00 in0.0 mm 0.00 in0.0 mm 0.12 in3.0 mm
09:51 PM 26.0°F-3.3°C 31.4°F-0.3°C 84% Calm Calm -- 30.28 in1025.4 mb 0.00 in0.0 mm 0.00 in0.0 mm 0.12 in3.0 mm
09:54 PM 25.7°F-3.5°C 31.4°F-0.3°C 84% Calm Calm -- 30.28 in1025.4 mb 0.00 in0.0 mm 0.00 in0.0 mm 0.12 in3.0 mm
09:57 PM 25.6°F-3.6°C 31.4°F-0.3°C 84% Calm Calm -- 30.29 in1025.7 mb 0.00 in0.0 mm 0.00 in0.0 mm 0.12 in3.0 mm
10:00 PM 25.1°F-3.8°C 31.4°F-0.3°C 85% Calm Calm -- 30.29 in1025.7 mb 0.00 in0.0 mm 0.00 in0.0 mm 0.12 in3.0 mm
10:03 PM 25.9°F-3.4°C 31.4°F-0.3°C 85% Calm Calm -- 30.29 in1025.7 mb 0.00 in0.0 mm 0.00 in0.0 mm 0.12 in3.0 mm
10:06 PM 25.7°F-3.5°C 31.3°F-0.4°C 85% Calm Calm -- 30.29 in1025.7 mb 0.00 in0.0 mm 0.00 in0.0 mm 0.12 in3.0 mm
10:09 PM 26.2°F-3.2°C 31.4°F-0.3°C 85% Calm Calm -- 30.29 in1025.7 mb 0.00 in0.0 mm 0.00 in0.0 mm 0.12 in3.0 mm
10:12 PM 25.8°F-3.4°C 31.1°F-0.5°C 85% Calm Calm -- 30.29 in1025.7 mb 0.00 in0.0 mm 0.00 in0.0 mm 0.12 in3.0 mm
10:15 PM 25.7°F-3.5°C 31.0°F-0.6°C 85% Calm Calm -- 30.29 in1025.7 mb 0.00 in0.0 mm 0.00 in0.0 mm 0.12 in3.0 mm
10:18 PM 25.9°F-3.4°C 31.1°F-0.5°C 85% Calm Calm -- 30.30 in1026.1 mb 0.00 in0.0 mm 0.00 in0.0 mm 0.12 in3.0 mm
10:21 PM 26.5°F-3.1°C 31.9°F-0.1°C 86% Calm Calm -- 30.30 in1026.1 mb 0.00 in0.0 mm 0.00 in0.0 mm 0.12 in3.0 mm
10:24 PM 27.2°F-2.7°C 31.9°F-0.1°C 86% Calm Calm -- 30.30 in1026.1 mb 0.00 in0.0 mm 0.00 in0.0 mm 0.12 in3.0 mm
10:27 PM 26.3°F-3.2°C 31.3°F-0.4°C 85% Calm Calm -- 30.31 in1026.4 mb 0.00 in0.0 mm 0.00 in0.0 mm 0.12 in3.0 mm
10:30 PM 26.6°F-3.0°C 31.7°F-0.2°C 86% Calm Calm -- 30.31 in1026.4 mb 0.00 in0.0 mm 0.00 in0.0 mm 0.12 in3.0 mm
10:33 PM 26.2°F-3.2°C 31.7°F-0.2°C 86% Calm Calm -- 30.31 in1026.4 mb 0.00 in0.0 mm 0.00 in0.0 mm 0.12 in3.0 mm
10:36 PM 25.5°F-3.6°C 31.2°F-0.4°C 85% Calm Calm -- 30.30 in1026.1 mb 0.00 in0.0 mm 0.00 in0.0 mm 0.12 in3.0 mm
10:39 PM 26.2°F-3.2°C 31.0°F-0.6°C 85% Calm Calm -- 30.31 in1026.4 mb 0.00 in0.0 mm 0.00 in0.0 mm 0.12 in3.0 mm
10:42 PM 25.4°F-3.7°C 31.1°F-0.5°C 85% Calm Calm -- 30.30 in1026.1 mb 0.00 in0.0 mm 0.00 in0.0 mm 0.12 in3.0 mm
10:45 PM 24.7°F-4.1°C 30.8°F-0.7°C 85% Calm Calm -- 30.31 in1026.4 mb 0.00 in0.0 mm 0.00 in0.0 mm 0.12 in3.0 mm
10:48 PM 24.8°F-4.0°C 30.8°F-0.7°C 85% Calm Calm -- 30.31 in1026.4 mb 0.00 in0.0 mm 0.00 in0.0 mm 0.12 in3.0 mm
10:51 PM 24.6°F-4.1°C 30.5°F-0.8°C 84% Calm Calm -- 30.31 in1026.4 mb 0.00 in0.0 mm 0.00 in0.0 mm 0.12 in3.0 mm
10:54 PM 25.0°F-3.9°C 30.4°F-0.9°C 85% Calm Calm -- 30.31 in1026.4 mb 0.00 in0.0 mm 0.00 in0.0 mm 0.12 in3.0 mm
10:57 PM 25.1°F-3.8°C 30.6°F-0.8°C 85% Calm Calm -- 30.31 in1026.4 mb 0.00 in0.0 mm 0.00 in0.0 mm 0.12 in3.0 mm
11:00 PM 25.1°F-3.8°C 30.9°F-0.6°C 85% Calm Calm -- 30.31 in1026.4 mb 0.00 in0.0 mm 0.00 in0.0 mm 0.12 in3.0 mm
11:03 PM 25.0°F-3.9°C 30.7°F-0.7°C 85% Calm Calm -- 30.31 in1026.4 mb 0.00 in0.0 mm 0.00 in0.0 mm 0.12 in3.0 mm
11:06 PM 25.5°F-3.6°C 30.5°F-0.8°C 85% Calm Calm -- 30.32 in1026.8 mb 0.00 in0.0 mm 0.00 in0.0 mm 0.12 in3.0 mm
11:09 PM 25.5°F-3.6°C 30.8°F-0.7°C 86% Calm Calm -- 30.31 in1026.4 mb 0.00 in0.0 mm 0.00 in0.0 mm 0.12 in3.0 mm
11:12 PM 26.0°F-3.3°C 31.1°F-0.5°C 86% Calm Calm -- 30.32 in1026.8 mb 0.00 in0.0 mm 0.00 in0.0 mm 0.12 in3.0 mm
11:15 PM 25.8°F-3.4°C 30.8°F-0.7°C 85% Calm Calm -- 30.31 in1026.4 mb 0.00 in0.0 mm 0.00 in0.0 mm 0.12 in3.0 mm
11:18 PM 25.8°F-3.4°C 30.8°F-0.7°C 86% Calm Calm -- 30.32 in1026.8 mb 0.00 in0.0 mm 0.00 in0.0 mm 0.12 in3.0 mm
11:21 PM 24.6°F-4.1°C 30.4°F-0.9°C 84% Calm Calm -- 30.33 in1027.1 mb 0.00 in0.0 mm 0.00 in0.0 mm 0.12 in3.0 mm
11:24 PM 25.1°F-3.8°C 30.1°F-1.1°C 84% Calm Calm -- 30.33 in1027.1 mb 0.00 in0.0 mm 0.00 in0.0 mm 0.12 in3.0 mm
11:27 PM 24.9°F-3.9°C 30.2°F-1.0°C 85% Calm Calm -- 30.32 in1026.8 mb 0.00 in0.0 mm 0.00 in0.0 mm 0.12 in3.0 mm
11:30 PM 24.6°F-4.1°C 30.3°F-0.9°C 85% Calm Calm -- 30.33 in1027.1 mb 0.00 in0.0 mm 0.00 in0.0 mm 0.12 in3.0 mm
11:33 PM 24.9°F-3.9°C 30.2°F-1.0°C 85% Calm Calm -- 30.32 in1026.8 mb 0.00 in0.0 mm 0.00 in0.0 mm 0.12 in3.0 mm
11:36 PM 24.5°F-4.2°C 30.0°F-1.1°C 84% Calm Calm -- 30.32 in1026.8 mb 0.00 in0.0 mm 0.00 in0.0 mm 0.12 in3.0 mm
11:39 PM 24.4°F-4.2°C 30.1°F-1.1°C 85% Calm Calm -- 30.32 in1026.8 mb 0.00 in0.0 mm 0.00 in0.0 mm 0.12 in3.0 mm
11:42 PM 24.2°F-4.3°C 29.7°F-1.3°C 84% Calm Calm -- 30.33 in1027.1 mb 0.00 in0.0 mm 0.00 in0.0 mm 0.12 in3.0 mm
11:45 PM 24.1°F-4.4°C 29.7°F-1.3°C 84% Calm Calm -- 30.33 in1027.1 mb 0.00 in0.0 mm 0.00 in0.0 mm 0.12 in3.0 mm
11:48 PM 23.8°F-4.6°C 29.7°F-1.3°C 85% Calm Calm -- 30.33 in1027.1 mb 0.00 in0.0 mm 0.00 in0.0 mm 0.12 in3.0 mm
11:51 PM 24.0°F-4.4°C 29.8°F-1.2°C 85% Calm Calm -- 30.33 in1027.1 mb 0.00 in0.0 mm 0.00 in0.0 mm 0.12 in3.0 mm
11:54 PM 24.7°F-4.1°C 29.5°F-1.4°C 84% Calm Calm -- 30.33 in1027.1 mb 0.00 in0.0 mm 0.00 in0.0 mm 0.12 in3.0 mm
11:57 PM 24.9°F-3.9°C 29.5°F-1.4°C 85% Calm Calm -- 30.32 in1026.8 mb 0.00 in0.0 mm 0.00 in0.0 mm 0.12 in3.0 mm